Another Hard Day at the Office Weather Stats

 
 
 

High monthly outside Temperature, 20.8 , C
Low monthly outside Temperature, 5.1 , C
High yearly outside Temperature, 23.9 , C
Low yearly outside Temperature, -2.2 , C

Low monthly barometer, 987.6 , mb
High monthly barometer, 1027.3 , mb
Low yearly barometer, 975.0 , mb
High yearly barometer 1041.1 , mb

High wind speed, 18.0 , mph
Time of High wind speed, 9:22 , mph
High monthly wind speed, 50.0 , mph
High yearly wind speed, 55.0 , mph

 

 




3124
                    Temp     Hi    Low   Out    Dew  Wind  Wind   Wind    Hi    Hi   Wind   Heat    THW                Rain    Heat    Cool    In     In    In     In     In   In Air  Wind  Wind    ISS   Arc.
  Date    Time     Out   Temp   Temp   Hum    Pt. Speed   Dir    Run Speed   Dir  Chill  Index  Index   Bar    Rain  Rate    D-D     D-D    Temp   Hum    Dew   Heat    EMC Density  Samp   Tx   Recept  Int.
---------------------------------------------------------------------------------------------------------------------------------------------------------------------------------------------------------------
25/05/15   0:05   13.3   13.3   13.3    92   12.0   2.0   WNW   0.17   4.0   WNW   13.3   13.3   13.3  1017.9  0.00   0.0   0.018   0.000   25.9    47   13.8   25.9   8.68 1.1678    116    1    100.0    5 
25/05/15   0:10   13.2   13.3   13.2    92   12.0   3.0   WNW   0.25   4.0   WNW   13.2   13.3   13.3  1017.9  0.00   0.0   0.018   0.000   25.9    47   13.7   25.8   8.68 1.1681    117    1    100.0    5 
25/05/15   0:15   13.2   13.3   13.2    93   12.1   2.0     W   0.17   4.0     W   13.2   13.3   13.3  1017.8  0.00   0.0   0.018   0.000   25.9    47   13.7   25.8   8.68 1.1681    116    1    100.0    5 
25/05/15   0:20   13.2   13.2   13.2    93   12.1   2.0     W   0.17   4.0     W   13.2   13.3   13.3  1017.7  0.00   0.0   0.018   0.000   25.8    47   13.7   25.7   8.68 1.1683    117    1    100.0    5 
25/05/15   0:25   13.2   13.2   13.2    93   12.1   2.0     W   0.17   5.0     W   13.2   13.3   13.3  1017.7  0.00   0.0   0.018   0.000   25.9    47   13.7   25.8   8.68 1.1680    116    1    100.0    5 
25/05/15   0:30   13.2   13.2   13.2    93   12.1   3.0   WNW   0.25   6.0     W   13.2   13.3   13.3  1017.8  0.00   0.0   0.018   0.000   25.8    47   13.7   25.7   8.68 1.1683    117    1    100.0    5 
25/05/15   0:35   13.1   13.2   13.1    93   12.0   3.0     W   0.25   5.0     W   13.1   13.2   13.2  1017.7  0.00   0.0   0.018   0.000   25.8    47   13.7   25.7   8.68 1.1682    117    1    100.0    5 
25/05/15   0:40   13.1   13.1   13.1    93   11.9   3.0     W   0.25   5.0   WNW   13.1   13.2   13.2  1017.7  0.00   0.0   0.018   0.000   25.8    47   13.7   25.7   8.68 1.1683    116    1    100.0    5 
25/05/15   0:45   13.0   13.1   13.0    93   11.9   3.0     W   0.25   5.0     W   13.0   13.1   13.1  1017.8  0.00   0.0   0.019   0.000   25.8    47   13.6   25.7   8.68 1.1686    117    1    100.0    5 
25/05/15   0:50   12.9   13.0   12.9    93   11.8   4.0   WNW   0.33   6.0     W   12.8   13.1   12.9  1017.8  0.00   0.0   0.019   0.000   25.8    47   13.6   25.7   8.68 1.1686    118    1    100.0    5 
25/05/15   0:55   12.9   12.9   12.9    93   11.8   3.0   WNW   0.25   5.0     W   12.9   13.0   13.0  1017.7  0.00   0.0   0.019   0.000   25.8    47   13.6   25.7   8.68 1.1685    117    1    100.0    5 
25/05/15   1:00   12.8   12.9   12.8    93   11.7   3.0   WNW   0.25   6.0   WNW   12.8   12.9   12.9  1017.7  0.00   0.0   0.019   0.000   25.8    47   13.6   25.7   8.68 1.1685    115    1    100.0    5 
25/05/15   1:05   12.8   12.8   12.8    93   11.7   3.0    NW   0.25   6.0    NW   12.8   12.9   12.9  1017.7  0.00   0.0   0.019   0.000   25.7    47   13.6   25.6   8.68 1.1688    117    1    100.0    5 
25/05/15   1:10   12.8   12.8   12.8    93   11.7   3.0    NW   0.25   5.0    NW   12.8   12.9   12.9  1017.7  0.00   0.0   0.019   0.000   25.7    47   13.6   25.6   8.68 1.1688    116    1    100.0    5 
25/05/15   1:15   12.7   12.8   12.7    93   11.6   2.0   WNW   0.17   4.0   WNW   12.7   12.8   12.8  1017.7  0.00   0.0   0.019   0.000   25.7    47   13.6   25.6   8.68 1.1687    117    1    100.0    5 
25/05/15   1:20   12.7   12.7   12.7    94   11.8   3.0   WNW   0.25   5.0    NW   12.7   12.8   12.8  1017.7  0.00   0.0   0.019   0.000   25.7    47   13.5   25.6   8.69 1.1691    115    1    100.0    5 
25/05/15   1:25   12.8   12.8   12.7    94   11.8   3.0    NW   0.25   5.0    NW   12.8   12.9   12.9  1017.7  0.00   0.0   0.019   0.000   25.7    47   13.5   25.6   8.69 1.1690    117    1    100.0    5 
25/05/15   1:30   12.8   12.8   12.8    94   11.8   3.0    NW   0.25   6.0   NNW   12.8   12.9   12.9  1017.6  0.00   0.0   0.019   0.000   25.7    47   13.5   25.6   8.69 1.1690    117    1    100.0    5 
25/05/15   1:35   12.8   12.8   12.8    94   11.8   4.0   NNW   0.33   7.0     N   12.6   12.9   12.7  1017.6  0.00   0.0   0.019   0.000   25.6    47   13.5   25.5   8.69 1.1693    117    1    100.0    5 
25/05/15   1:40   12.8   12.8   12.8    94   11.8   6.0     N   0.50   9.0     N   12.0   12.9   12.1  1017.5  0.00   0.0   0.019   0.000   25.6    47   13.5   25.5   8.69 1.1691    116    1    100.0    5 
25/05/15   1:45   12.8   12.8   12.8    94   11.9   7.0   NNW   0.58  12.0   NNW   11.8   12.9   11.9  1017.5  0.00   0.0   0.019   0.000   25.6    47   13.5   25.5   8.69 1.1691    117    1    100.0    5 
25/05/15   1:50   12.9   12.9   12.8    94   11.9   8.0     N   0.67  12.0   NNW   11.5   13.0   11.6  1017.5  0.00   0.0   0.019   0.000   25.6    47   13.5   25.5   8.69 1.1691    117    1    100.0    5 
25/05/15   1:55   12.8   12.9   12.8    94   11.9   7.0     N   0.58  12.0     N   11.8   12.9   11.9  1017.6  0.00   0.0   0.019   0.000   25.6    47   13.4   25.4   8.69 1.1695    117    1    100.0    5 
25/05/15   2:00   12.8   12.8   12.8    93   11.7   7.0     N   0.58  11.0     N   11.8   12.9   11.9  1017.6  0.00   0.0   0.019   0.000   25.6    47   13.4   25.4   8.69 1.1695    116    1    100.0    5 
25/05/15   2:05   12.8   12.8   12.8    93   11.7   6.0     N   0.50  10.0     N   12.0   12.9   12.1  1017.7  0.00   0.0   0.019   0.000   25.6    47   13.4   25.4   8.69 1.1696    117    1    100.0    5 
25/05/15   2:10   12.7   12.8   12.7    93   11.6   6.0     N   0.50   9.0     N   11.9   12.8   12.1  1017.7  0.00   0.0   0.019   0.000   25.5    47   13.4   25.3   8.69 1.1698    117    1    100.0    5 
25/05/15   2:15   12.7   12.7   12.7    93   11.6   6.0     N   0.50   9.0     N   11.9   12.8   12.0  1017.6  0.00   0.0   0.020   0.000   25.5    47   13.4   25.3   8.69 1.1698    116    1    100.0    5 
25/05/15   2:20   12.6   12.7   12.6    93   11.5   6.0     N   0.50  11.0    NE   11.7   12.7   11.8  1017.6  0.00   0.0   0.020   0.000   25.5    47   13.4   25.3   8.69 1.1698    115    1    100.0    5 
25/05/15   2:25   12.4   12.6   12.4    93   11.3   7.0   NNE   0.58  13.0   NNE   11.3   12.5   11.4  1017.5  0.00   0.0   0.021   0.000   25.5    47   13.4   25.3   8.69 1.1697    114    1    100.0    5 
25/05/15   2:30   12.2   12.4   12.2    92   11.0   7.0     N   0.58  12.0     N   11.1   12.3   11.2  1017.6  0.00   0.0   0.021   0.000   25.5    47   13.4   25.3   8.69 1.1698    116    1    100.0    5 
25/05/15   2:35   12.1   12.2   12.1    92   10.9   5.0     N   0.42  11.0   NNE   11.5   12.2   11.6  1017.7  0.00   0.0   0.022   0.000   25.5    47   13.4   25.3   8.69 1.1699    116    1    100.0    5 
25/05/15   2:40   12.0   12.1   12.0    91   10.6   5.0     N   0.42   9.0     N   11.3   12.1   11.4  1017.7  0.00   0.0   0.022   0.000   25.5    47   13.4   25.3   8.69 1.1699    117    1    100.0    5 
25/05/15   2:45   11.9   12.0   11.9    91   10.5   5.0     N   0.42   9.0   NNW   11.2   11.9   11.3  1017.9  0.00   0.0   0.022   0.000   25.5    47   13.4   25.3   8.69 1.1701    117    1    100.0    5 
25/05/15   2:50   11.9   11.9   11.9    91   10.5   5.0     N   0.42   9.0     N   11.2   11.9   11.3  1018.0  0.00   0.0   0.022   0.000   25.4    47   13.3   25.3   8.69 1.1704    117    1    100.0    5 
25/05/15   2:55   11.9   11.9   11.9    90   10.3   4.0     N   0.33   8.0     N   11.6   11.9   11.6  1017.9  0.00   0.0   0.022   0.000   25.4    47   13.3   25.3   8.69 1.1704    117    1    100.0    5 
25/05/15   3:00   11.9   11.9   11.9    90   10.3   7.0     N   0.58  11.0     N   10.7   11.9   10.8  1017.9  0.00   0.0   0.022   0.000   25.4    47   13.3   25.2   8.70 1.1707    117    1    100.0    5 
25/05/15   3:05   11.9   11.9   11.9    90   10.4   6.0     N   0.50  10.0     N   11.0   12.0   11.1  1017.9  0.00   0.0   0.022   0.000   25.4    47   13.3   25.2   8.70 1.1706    117    1    100.0    5 
25/05/15   3:10   11.9   11.9   11.9    89   10.1   6.0   NNE   0.50  11.0     N   10.9   11.9   11.0  1017.7  0.00   0.0   0.022   0.000   25.4    47   13.3   25.2   8.70 1.1704    117    1    100.0    5 
25/05/15   3:15   11.9   11.9   11.9    88   10.0   7.0   NNE   0.58   9.0   NNE   10.7   11.9   10.7  1017.8  0.00   0.0   0.022   0.000   25.4    46   12.9   25.2   8.50 1.1709    117    1    100.0    5 
25/05/15   3:20   11.8   11.9   11.8    88    9.9   7.0   NNE   0.58  12.0     N   10.7   11.8   10.7  1017.9  0.00   0.0   0.023   0.000   25.3    46   12.9   25.1   8.50 1.1713    117    1    100.0    5 
25/05/15   3:25   11.9   11.9   11.8    87    9.8   9.0   NNE   0.75  14.0   NNE    9.9   11.9    9.9  1017.8  0.00   0.0   0.022   0.000   25.3    46   12.8   25.1   8.50 1.1715    116    1    100.0    5 
25/05/15   3:30   11.9   11.9   11.9    87    9.8   7.0     N   0.58  14.0   NNE   10.7   11.9   10.7  1017.8  0.00   0.0   0.022   0.000   25.3    46   12.8   25.1   8.50 1.1715    117    1    100.0    5 
25/05/15   3:35   11.9   11.9   11.9    86    9.6   6.0   NNE   0.50  10.0   NNW   10.9   11.8   10.9  1017.8  0.00   0.0   0.022   0.000   25.3    46   12.8   25.1   8.50 1.1715    117    1    100.0    5 
25/05/15   3:40   11.9   11.9   11.9    86    9.6   4.0     N   0.33   8.0   NNW   11.6   11.8   11.5  1017.9  0.00   0.0   0.022   0.000   25.2    46   12.8   25.0   8.50 1.1718    115    1    100.0    5 
25/05/15   3:45   11.9   11.9   11.9    86    9.6   5.0     N   0.42   9.0   NNE   11.2   11.8   11.2  1017.8  0.00   0.0   0.022   0.000   25.2    46   12.8   25.0   8.50 1.1718    116    1    100.0    5 
25/05/15   3:50   11.9   11.9   11.9    86    9.6   5.0     N   0.42   9.0   NNW   11.2   11.8   11.2  1017.7  0.00   0.0   0.022   0.000   25.2    46   12.7   24.9   8.50 1.1720    117    1    100.0    5 
25/05/15   3:55   11.8   11.9   11.8    85    9.4   5.0     N   0.42   9.0   NNE   11.2   11.8   11.1  1017.7  0.00   0.0   0.023   0.000   25.2    46   12.7   24.9   8.50 1.1719    116    1    100.0    5 
25/05/15   4:00   11.8   11.8   11.8    85    9.3   6.0     N   0.50  11.0     N   10.8   11.7   10.7  1017.6  0.00   0.0   0.023   0.000   25.2    46   12.7   24.9   8.50 1.1718    116    1    100.0    5 
25/05/15   4:05   11.7   11.8   11.7    85    9.3   5.0     N   0.42   8.0     N   11.0   11.7   10.9  1017.6  0.00   0.0   0.023   0.000   25.1    46   12.7   24.9   8.51 1.1721    118    1    100.0    5 
25/05/15   4:10   11.7   11.7   11.7    85    9.2   4.0     N   0.33   9.0   NNW   11.3   11.6   11.2  1017.6  0.00   0.0   0.023   0.000   25.1    46   12.7   24.9   8.51 1.1720    117    1    100.0    5 
25/05/15   4:15   11.6   11.7   11.6    85    9.2   4.0     N   0.33   9.0   NNW   11.2   11.6   11.2  1017.6  0.00   0.0   0.023   0.000   25.1    46   12.7   24.9   8.51 1.1721    117    1    100.0    5 
25/05/15   4:20   11.6   11.6   11.6    85    9.1   4.0     N   0.33   7.0     N   11.2   11.5   11.1  1017.7  0.00   0.0   0.024   0.000   25.1    46   12.7   24.9   8.51 1.1722    116    1    100.0    5 
25/05/15   4:25   11.5   11.6   11.5    85    9.1   6.0     N   0.50  11.0   NNE   10.4   11.4   10.4  1017.7  0.00   0.0   0.024   0.000   25.1    46   12.6   24.8   8.51 1.1725    116    1    100.0    5 
25/05/15   4:30   11.4   11.5   11.4    85    9.0   7.0     N   0.58  13.0     N   10.2   11.4   10.1  1017.9  0.00   0.0   0.024   0.000   25.0    46   12.6   24.8   8.51 1.1729    116    1    100.0    5 
25/05/15   4:35   11.4   11.4   11.4    85    9.0   5.0     N   0.42   9.0     N   10.7   11.4   10.7  1017.9  0.00   0.0   0.024   0.000   25.0    46   12.6   24.8   8.51 1.1729    117    1    100.0    5 
25/05/15   4:40   11.3   11.4   11.3    84    8.7   6.0   NNW   0.50  11.0   NNW   10.2   11.2   10.2  1017.8  0.00   0.0   0.024   0.000   25.0    46   12.6   24.8   8.51 1.1728    117    1    100.0    5 
25/05/15   4:45   11.2   11.3   11.2    84    8.6   7.0     N   0.58  10.0   NNW    9.9   11.2    9.8  1017.7  0.00   0.0   0.025   0.000   25.0    46   12.6   24.8   8.51 1.1727    117    1    100.0    5 
25/05/15   4:50   11.1   11.2   11.1    84    8.5   6.0     N   0.50  11.0    NE   10.0   11.1   10.0  1017.8  0.00   0.0   0.025   0.000   25.0    46   12.6   24.8   8.51 1.1728    116    1    100.0    5 
25/05/15   4:55   11.0   11.1   11.0    84    8.4   7.0     N   0.58  14.0   NNW    9.7   11.0    9.7  1017.9  0.00   0.0   0.025   0.000   24.9    46   12.5   24.7   8.51 1.1732    117    1    100.0    5 
25/05/15   5:00   11.0   11.0   11.0    84    8.4   7.0     N   0.58  12.0   NNW    9.7   11.0    9.7  1017.9  0.00   0.0   0.025   0.000   24.9    46   12.5   24.7   8.51 1.1732    116    1    100.0    5 
25/05/15   5:05   10.9   11.0   10.9    84    8.3   7.0     N   0.58  13.0     N    9.6   10.9    9.6  1017.9  0.00   0.0   0.026   0.000   24.9    46   12.5   24.7   8.51 1.1732    117    1    100.0    5 
25/05/15   5:10   10.9   10.9   10.9    83    8.1   6.0     N   0.50  11.0   NNW    9.8   10.8    9.7  1018.0  0.00   0.0   0.026   0.000   24.9    46   12.5   24.7   8.51 1.1736    116    1    100.0    5 
25/05/15   5:15   10.8   10.9   10.8    83    8.1   6.0   NNW   0.50  10.0   NNE    9.7   10.8    9.7  1018.1  0.00   0.0   0.026   0.000   24.9    46   12.5   24.7   8.51 1.1737    116    1    100.0    5 
25/05/15   5:20   10.8   10.8   10.8    83    8.1   6.0     N   0.50  10.0     N    9.7   10.8    9.7  1018.2  0.00   0.0   0.026   0.000   24.8    46   12.4   24.6   8.52 1.1741    117    1    100.0    5 
25/05/15   5:25   10.8   10.8   10.8    82    7.8   7.0   NNW   0.58  12.0   NNW    9.4   10.7    9.3  1018.3  0.00   0.0   0.026   0.000   24.8    46   12.4   24.6   8.52 1.1743    117    1    100.0    5 
25/05/15   5:30   10.8   10.8   10.8    82    7.8   6.0   NNW   0.50  14.0   NNW    9.6   10.7    9.6  1018.4  0.00   0.0   0.026   0.000   24.8    46   12.4   24.6   8.52 1.1747    117    1    100.0    5 
25/05/15   5:35   10.8   10.8   10.7    81    7.6   7.0     N   0.58  12.0   NNE    9.4   10.7    9.3  1018.5  0.00   0.0   0.026   0.000   24.8    46   12.4   24.6   8.52 1.1747    116    1    100.0    5 
25/05/15   5:40   10.8   10.8   10.7    80    7.5   5.0     N   0.42  12.0   NNW    9.9   10.7    9.9  1018.5  0.00   0.0   0.026   0.000   24.8    46   12.4   24.6   8.52 1.1747    116    1    100.0    5 
25/05/15   5:45   10.8   10.8   10.8    80    7.5   6.0     N   0.50  11.0     N    9.6   10.7    9.6  1018.5  0.00   0.0   0.026   0.000   24.7    46   12.3   24.5   8.52 1.1750    117    1    100.0    5 
25/05/15   5:50   10.8   10.8   10.8    79    7.3   5.0   NNW   0.42   9.0     N    9.9   10.7    9.8  1018.3  0.00   0.0   0.026   0.000   24.7    46   12.3   24.5   8.52 1.1748    117    1    100.0    5 
25/05/15   5:55   10.8   10.8   10.8    79    7.3   3.0   NNW   0.25   8.0   NNW   10.7   10.7   10.6  1018.2  0.00   0.0   0.026   0.000   24.7    46   12.3   24.5   8.52 1.1747    117    1    100.0    5 
25/05/15   6:00   10.7   10.8   10.7    79    7.2   7.0     N   0.58  16.0   NNW    9.2   10.6    9.1  1018.3  0.00   0.0   0.027   0.000   24.7    46   12.3   24.4   8.52 1.1750    116    1    100.0    5 
25/05/15   6:05   10.6   10.7   10.6    78    6.9   6.0     N   0.50  12.0     N    9.4   10.5    9.3  1018.2  0.00   0.0   0.027   0.000   24.7    46   12.3   24.4   8.52 1.1750    116    1    100.0    5 
25/05/15   6:10   10.6   10.6   10.5    78    6.9   7.0   NNW   0.58  12.0   NNW    9.1   10.4    9.0  1018.2  0.00   0.0   0.027   0.000   24.7    46   12.3   24.4   8.52 1.1749    117    1    100.0    5 
25/05/15   6:15   10.5   10.5   10.5    78    6.8   5.0   NNW   0.42  11.0    NW    9.6   10.4    9.5  1018.2  0.00   0.0   0.027   0.000   24.6    46   12.2   24.4   8.52 1.1752    116    1    100.0    5 
25/05/15   6:20   10.5   10.5   10.5    77    6.6   7.0     N   0.58  12.0   NNE    9.1   10.4    8.9  1018.2  0.00   0.0   0.027   0.000   24.6    46   12.2   24.4   8.52 1.1752    117    1    100.0    5 
25/05/15   6:25   10.5   10.5   10.5    76    6.4   7.0     N   0.58  11.0   NNW    9.1   10.4    8.9  1018.3  0.00   0.0   0.027   0.000   24.6    46   12.2   24.4   8.53 1.1757    115    1    100.0    5 
25/05/15   6:30   10.6   10.6   10.5    75    6.3   7.0   NNW   0.58  12.0     N    9.1   10.4    8.9  1018.4  0.00   0.0   0.027   0.000   24.6    46   12.2   24.4   8.53 1.1757    115    1    100.0    5 
25/05/15   6:35   10.7   10.7   10.6    76    6.6   6.0   NNW   0.50  10.0    NW    9.5   10.5    9.3  1018.6  0.00   0.0   0.027   0.000   24.6    46   12.2   24.4   8.53 1.1760    116    1    100.0    5 
25/05/15   6:40   10.7   10.7   10.7    75    6.5   6.0     N   0.50   9.0     N    9.6   10.6    9.4  1018.6  0.00   0.0   0.026   0.000   24.6    46   12.2   24.4   8.53 1.1760    117    1    100.0    5 
25/05/15   6:45   10.8   10.8   10.8    75    6.6   7.0   NNW   0.58  12.0   NNW    9.4   10.7    9.3  1018.6  0.00   0.0   0.026   0.000   24.5    46   12.1   24.3   8.53 1.1763    117    1    100.0    5 
25/05/15   6:50   10.9   10.9   10.8    75    6.7   6.0   NNW   0.50  13.0   NNE    9.8   10.7    9.6  1018.5  0.00   0.0   0.026   0.000   24.5    46   12.1   24.3   8.53 1.1761    116    1    100.0    5 
25/05/15   6:55   11.1   11.1   10.9    76    7.0   5.0     N   0.42   9.0   NNE   10.3   10.8   10.1  1018.4  0.00   0.0   0.025   0.000   24.5    46   12.1   24.3   8.53 1.1760    117    1    100.0    5 
25/05/15   7:00   11.1   11.1   11.1    75    6.8   6.0   NNW   0.50  10.0     N    9.9   10.8    9.7  1018.5  0.00   0.0   0.025   0.000   24.5    46   12.1   24.3   8.53 1.1762    117    1    100.0    5 
25/05/15   7:05   11.1   11.1   11.1    75    6.8   7.0   NNW   0.58  12.0   NNW    9.8   10.9    9.6  1018.6  0.00   0.0   0.025   0.000   24.5    46   12.1   24.3   8.53 1.1762    115    1    100.0    5 
25/05/15   7:10   11.2   11.2   11.1    74    6.8   9.0   NNW   0.75  14.0   NNW    9.1   10.9    8.8  1018.8  0.00   0.0   0.025   0.000   24.5    46   12.1   24.3   8.53 1.1765    114    1    100.0    5 
25/05/15   7:15   11.4   11.4   11.2    74    7.0   6.0   NNW   0.50  11.0   NNW   10.4   11.2   10.1  1018.7  0.00   0.0   0.024   0.000   24.5    46   12.1   24.3   8.53 1.1764    116    1    100.0    5 
25/05/15   7:20   11.7   11.7   11.4    74    7.2   5.0   NNW   0.42   9.0   NNW   10.9   11.4   10.7  1018.8  0.00   0.0   0.023   0.000   24.6    47   12.5   24.4   8.73 1.1758    116    1    100.0    5 
25/05/15   7:25   11.8   11.8   11.7    74    7.3   7.0   NNW   0.58  12.0   NNW   10.6   11.5   10.3  1018.8  0.00   0.0   0.023   0.000   24.6    47   12.5   24.4   8.73 1.1758    117    1    100.0    5 
25/05/15   7:30   11.9   11.9   11.8    73    7.3   6.0   NNW   0.50   9.0     N   11.0   11.6   10.7  1018.7  0.00   0.0   0.022   0.000   24.6    47   12.5   24.4   8.72 1.1754    117    1    100.0    5 
25/05/15   7:35   12.1   12.1   12.0    74    7.6   6.0   NNW   0.50   9.0   NNW   11.2   11.8   10.9  1018.7  0.00   0.0   0.022   0.000   24.7    47   12.6   24.5   8.72 1.1751    116    1    100.0    5 
25/05/15   7:40   12.2   12.2   12.2    73    7.5   6.0   NNW   0.50  10.0   WNW   11.3   11.8   10.9  1018.6  0.00   0.0   0.021   0.000   24.7    47   12.6   24.5   8.72 1.1751    115    1    100.0    5 
25/05/15   7:45   12.3   12.3   12.2    73    7.6   7.0   NNW   0.58  12.0     N   11.2   11.9   10.8  1018.7  0.00   0.0   0.021   0.000   24.7    47   12.6   24.6   8.72 1.1749    116    1    100.0    5 
25/05/15   7:50   12.3   12.3   12.3    73    7.6   8.0     N   0.67  13.0   NNW   10.8   12.0   10.5  1018.9  0.00   0.0   0.021   0.000   24.7    47   12.6   24.6   8.72 1.1751    117    1    100.0    5 
25/05/15   7:55   12.4   12.4   12.3    73    7.7   8.0     N   0.67  13.0     N   10.9   12.1   10.6  1019.0  0.00   0.0   0.021   0.000   24.7    47   12.6   24.6   8.72 1.1752    117    1    100.0    5 
25/05/15   8:00   12.4   12.4   12.4    73    7.7   5.0   NNE   0.42  11.0   NNE   11.8   12.1   11.5  1018.9  0.00   0.0   0.021   0.000   24.7    47   12.6   24.6   8.72 1.1752    117    1    100.0    5 
25/05/15   8:05   12.4   12.5   12.4    73    7.7   5.0   NNW   0.42   9.0   NNW   11.9   12.1   11.6  1019.0  0.00   0.0   0.020   0.000   24.7    47   12.6   24.6   8.72 1.1752    117    1    100.0    5 
25/05/15   8:10   12.6   12.6   12.4    73    7.8   7.0   NNW   0.58  14.0    NW   11.5   12.2   11.2  1019.0  0.00   0.0   0.020   0.000   24.8    46   12.4   24.6   8.52 1.1753    116    1    100.0    5 
25/05/15   8:15   12.7   12.7   12.6    72    7.8   7.0     N   0.58  11.0     N   11.7   12.3   11.3  1019.0  0.00   0.0   0.019   0.000   24.8    46   12.4   24.6   8.52 1.1754    116    1    100.0    5 
25/05/15   8:20   12.8   12.8   12.7    70    7.5   6.0   NNW   0.50  11.0     N   12.1   12.4   11.6  1019.1  0.00   0.0   0.019   0.000   24.8    46   12.4   24.6   8.52 1.1754    114    1    100.0    5 
25/05/15   8:25   12.9   12.9   12.8    70    7.5   7.0   NNW   0.58  11.0     N   11.9   12.4   11.4  1019.1  0.00   0.0   0.019   0.000   24.8    46   12.4   24.6   8.52 1.1754    116    1    100.0    5 
25/05/15   8:30   13.0   13.0   12.9    69    7.4   5.0   NNW   0.42  10.0    NW   12.6   12.6   12.1  1019.1  0.00   0.0   0.019   0.000   24.8    46   12.4   24.6   8.52 1.1754    116    1    100.0    5 
25/05/15   8:35   13.2   13.2   13.0    69    7.6   7.0     N   0.58  11.0     N   12.2   12.7   11.8  1019.1  0.00   0.0   0.018   0.000   24.8    46   12.4   24.6   8.52 1.1755    115    1    100.0    5 
25/05/15   8:40   13.2   13.2   13.1    67    7.2   6.0   NNW   0.50  10.0    NW   12.6   12.7   12.1  1019.1  0.00   0.0   0.018   0.000   24.8    46   12.4   24.6   8.52 1.1754    117    1    100.0    5 
25/05/15   8:45   13.3   13.3   13.2    68    7.5   5.0   NNW   0.42  10.0     N   12.9   12.8   12.4  1019.0  0.00   0.0   0.017   0.000   24.8    46   12.4   24.6   8.52 1.1754    116    1    100.0    5 
25/05/15   8:50   13.4   13.4   13.3    67    7.4   7.0    NW   0.58  11.0   NNW   12.5   12.9   12.0  1019.0  0.00   0.0   0.017   0.000   24.8    46   12.4   24.6   8.52 1.1754    115    1    100.0    5 
25/05/15   8:55   13.4   13.4   13.4    67    7.4   6.0   NNW   0.50   9.0     N   12.8   12.9   12.3  1019.0  0.00   0.0   0.017   0.000   24.8    46   12.4   24.6   8.52 1.1754    116    1    100.0    5 
25/05/15   9:00   13.5   13.5   13.4    66    7.3   5.0    NW   0.42   9.0     N   13.1   12.9   12.6  1019.0  0.00   0.0   0.017   0.000   24.8    47   12.7   24.6   8.72 1.1749    117    1    100.0    5 
25/05/15   9:05   13.5   13.5   13.5    67    7.5   6.0    NW   0.50  10.0   NNW   12.9   13.0   12.4  1018.9  0.00   0.0   0.017   0.000   24.8    47   12.7   24.6   8.72 1.1749    117    1    100.0    5 
25/05/15   9:10   13.4   13.5   13.4    66    7.2   8.0   NNW   0.67  15.0    NW   12.2   12.9   11.6  1018.9  0.00   0.0   0.017   0.000   24.8    47   12.8   24.7   8.72 1.1745    117    1    100.0    5 
25/05/15   9:15   13.4   13.4   13.4    66    7.2   8.0    NW   0.67  12.0   NNW   12.1   12.8   11.6  1018.8  0.00   0.0   0.017   0.000   24.8    47   12.8   24.7   8.72 1.1745    116    1    100.0    5 
25/05/15   9:20   13.4   13.4   13.3    65    7.0  10.0   NNW   0.83  15.0    NW   11.4   12.9   10.8  1018.8  0.00   0.0   0.017   0.000   24.9    47   12.8   24.7   8.71 1.1742    117    1    100.0    5 
25/05/15   9:25   13.6   13.6   13.4    67    7.5   6.0    NW   0.50  11.0    NW   12.9   13.1   12.4  1018.7  0.00   0.0   0.017   0.000   24.9    46   12.5   24.7   8.51 1.1744    117    1    100.0    5 
25/05/15   9:30   13.9   13.9   13.6    65    7.5   6.0    NW   0.50  11.0    NW   13.4   13.4   12.8  1018.7  0.00   0.0   0.015   0.000   24.9    46   12.5   24.7   8.51 1.1744    116    1    100.0    5 
25/05/15   9:35   14.0   14.0   13.9    65    7.5   8.0   NNW   0.67  12.0   NNW   12.8   13.4   12.3  1018.6  0.00   0.0   0.015   0.000   24.9    46   12.5   24.7   8.51 1.1741    117    1    100.0    5 
25/05/15   9:40   14.1   14.1   14.0    65    7.6   7.0   NNW   0.58  12.0   NNW   13.3   13.5   12.8  1018.6  0.00   0.0   0.015   0.000   24.9    46   12.5   24.7   8.51 1.1740    116    1    100.0    5 
25/05/15   9:45   14.2   14.2   14.1    64    7.5   7.0   NNW   0.58  12.0   NNW   13.4   13.6   12.8  1018.6  0.00   0.0   0.014   0.000   24.9    46   12.5   24.7   8.51 1.1740    117    1    100.0    5 
25/05/15   9:50   14.6   14.6   14.2    64    7.8   8.0   NNW   0.67  14.0     N   13.5   13.9   12.9  1018.6  0.00   0.0   0.013   0.000   25.0    46   12.6   24.8   8.51 1.1737    116    1    100.0    5 
25/05/15   9:55   14.9   14.9   14.6    63    8.0   9.0   NNW   0.75  17.0   NNW   13.6   14.3   12.9  1018.6  0.00   0.0   0.012   0.000   25.0    46   12.6   24.8   8.51 1.1738    117    1    100.0    5 
25/05/15  10:00   14.9   15.0   14.9    60    7.2   7.0    NW   0.58  15.0   WNW   14.3   14.2   13.6  1018.6  0.00   0.0   0.012   0.000   25.1    46   12.6   24.8   8.51 1.1735    117    1    100.0    5 
25/05/15  10:05   15.0   15.0   14.8    61    7.5   9.0    NW   0.75  14.0   NNW   13.6   14.3   12.9  1018.6  0.00   0.0   0.012   0.000   25.1    46   12.6   24.8   8.51 1.1735    117    1    100.0    5 
25/05/15  10:10   15.0   15.0   15.0    61    7.5   8.0    NW   0.67  14.0    NW   14.1   14.3   13.4  1018.5  0.00   0.0   0.012   0.000   25.1    46   12.7   24.9   8.51 1.1731    116    1    100.0    5 
25/05/15  10:15   15.2   15.2   15.1    61    7.7   9.0   NNW   0.75  16.0    NW   13.9   14.6   13.2  1018.6  0.00   0.0   0.011   0.000   25.1    46   12.7   24.9   8.51 1.1732    116    1    100.0    5 
25/05/15  10:20   15.6   15.6   15.2    60    7.8   7.0    NW   0.58  12.0   NNW   15.1   14.8   14.4  1018.5  0.00   0.0   0.010   0.000   25.2    46   12.7   24.9   8.50 1.1729    117    1    100.0    5 
25/05/15  10:25   15.9   15.9   15.6    60    8.2   7.0   NNW   0.58  13.0   NNW   15.6   15.3   14.9  1018.6  0.00   0.0   0.008   0.000   25.2    46   12.8   25.0   8.50 1.1726    117    1    100.0    5 
25/05/15  10:30   16.3   16.3   15.9    56    7.5   9.0   NNW   0.75  16.0    NW   15.1   15.4   14.3  1018.5  0.00   0.0   0.007   0.000   25.2    46   12.8   25.0   8.50 1.1726    117    1    100.0    5 
25/05/15  10:35   16.4   16.4   16.3    57    7.8   8.0   NNW   0.67  13.0     N   15.7   15.6   14.9  1018.6  0.00   0.0   0.007   0.000   25.3    46   12.8   25.1   8.50 1.1724    117    1    100.0    5 
25/05/15  10:40   16.2   16.4   16.2    58    7.9   8.0   NNW   0.67  14.0     N   15.4   15.4   14.7  1018.6  0.00   0.0   0.008   0.000   25.3    46   12.8   25.1   8.50 1.1724    117    1    100.0    5 
25/05/15  10:45   16.4   16.4   16.2    59    8.4   9.0   NNW   0.75  14.0   NNW   15.3   15.7   14.6  1018.7  0.00   0.0   0.007   0.000   25.3    46   12.9   25.1   8.50 1.1722    117    1    100.0    5 
25/05/15  10:50   16.8   16.8   16.4    58    8.5   8.0   NNW   0.67  13.0    NW   16.2   16.1   15.4  1018.6  0.00   0.0   0.005   0.000   25.3    46   12.9   25.1   8.50 1.1722    115    1    100.0    5 
25/05/15  10:55   17.1   17.1   16.8    55    7.9   7.0   NNW   0.58  12.0    NW   16.9   16.3   16.2  1018.6  0.00   0.0   0.004   0.000   25.4    46   12.9   25.2   8.50 1.1718    117    1    100.0    5 
25/05/15  11:00   16.8   17.1   16.8    55    7.7   8.0   NNW   0.67  17.0     N   16.2   15.9   15.3  1018.5  0.00   0.0   0.005   0.000   25.4    46   12.9   25.2   8.50 1.1717    117    1    100.0    5 
25/05/15  11:05   16.5   16.8   16.5    55    7.4   8.0    NW   0.67  13.0   WNW   15.8   15.7   15.0  1018.5  0.00   0.0   0.006   0.000   25.4    46   13.0   25.3   8.49 1.1715    115    1    100.0    5 
25/05/15  11:10   16.2   16.5   16.2    56    7.4  10.0    NW   0.83  17.0   NNW   14.6   15.4   13.8  1018.5  0.00   0.0   0.007   0.000   25.5    46   13.0   25.3   8.49 1.1712    117    1    100.0    5 
25/05/15  11:15   16.2   16.2   16.1    57    7.6   7.0    NW   0.58  12.0    NW   15.8   15.4   15.1  1018.6  0.00   0.0   0.008   0.000   25.5    46   13.0   25.3   8.49 1.1713    117    1    100.0    5 
25/05/15  11:20   16.1   16.2   16.1    57    7.6   7.0    NW   0.58  13.0   NNW   15.8   15.3   15.0  1018.6  0.00   0.0   0.008   0.000   25.5    46   13.0   25.3   8.49 1.1713    117    1    100.0    5 
25/05/15  11:25   16.1   16.1   16.1    58    7.8   7.0   NNW   0.58  12.0    NW   15.7   15.3   14.9  1018.6  0.00   0.0   0.008   0.000   25.6    46   13.1   25.4   8.49 1.1710    118    1    100.0    5 
25/05/15  11:30   16.2   16.2   16.1    57    7.6   6.0    NW   0.50  10.0     N   16.1   15.4   15.3  1018.6  0.00   0.0   0.008   0.000   25.6    46   13.1   25.4   8.49 1.1710    116    1    100.0    5 
25/05/15  11:35   16.2   16.3   16.2    56    7.4   7.0    NW   0.58  14.0    NW   15.8   15.3   15.0  1018.6  0.00   0.0   0.008   0.000   25.6    46   13.1   25.4   8.49 1.1707    116    1    100.0    5 
25/05/15  11:40   16.3   16.3   16.1    58    8.0   8.0    NW   0.67  12.0   WNW   15.6   15.6   14.9  1018.5  0.00   0.0   0.007   0.000   25.7    46   13.2   25.5   8.49 1.1704    117    1    100.0    5 
25/05/15  11:45   16.8   16.8   16.3    56    7.9   7.0    NW   0.58  16.0   NNW   16.6   16.0   15.8  1018.4  0.00   0.0   0.005   0.000   25.7    46   13.2   25.5   8.49 1.1703    116    1    100.0    5 
25/05/15  11:50   17.2   17.2   16.8    54    7.8   6.0    NW   0.50  11.0    NW   17.2   16.3   16.3  1018.3  0.00   0.0   0.004   0.000   25.7    46   13.2   25.6   8.48 1.1698    115    1    100.0    5 
25/05/15  11:55   17.4   17.4   17.2    55    8.3   6.0    NW   0.50  12.0   NNW   17.4   16.6   16.6  1018.2  0.00   0.0   0.003   0.000   25.7    46   13.2   25.6   8.48 1.1697    116    1    100.0    5 
25/05/15  12:00   17.2   17.4   17.2    54    7.8   8.0    NW   0.67  15.0    NW   16.7   16.3   15.8  1018.2  0.00   0.0   0.004   0.000   25.8    46   13.3   25.6   8.48 1.1694    117    1    100.0    5 
25/05/15  12:05   16.9   17.2   16.9    54    7.6   6.0    NW   0.50  13.0   NNW   16.9   16.1   16.1  1018.1  0.00   0.0   0.005   0.000   25.8    46   13.3   25.6   8.48 1.1693    117    1    100.0    5 
25/05/15  12:10   17.0   17.0   16.9    56    8.2   5.0   WNW   0.42  11.0   NNW   17.0   16.2   16.2  1018.1  0.00   0.0   0.005   0.000   25.8    46   13.3   25.7   8.48 1.1691    117    1    100.0    5 
25/05/15  12:15   16.9   17.0   16.9    55    7.8   6.0    NW   0.50  15.0    NW   16.9   16.1   16.1  1018.2  0.00   0.0   0.005   0.000   25.9    46   13.4   25.8   8.48 1.1689    116    1    100.0    5 
25/05/15  12:20   17.0   17.0   16.9    56    8.2   6.0   NNW   0.50  11.0    NW   17.0   16.2   16.2  1018.2  0.00   0.0   0.005   0.000   25.9    46   13.4   25.8   8.48 1.1686    117    1    100.0    5 
25/05/15  12:25   17.1   17.1   17.0    56    8.2   6.0   NNW   0.50  12.0    NW   17.1   16.3   16.3  1018.2  0.00   0.0   0.004   0.000   26.0    46   13.5   25.9   8.47 1.1683    117    1    100.0    5 
25/05/15  12:30   16.8   17.1   16.8    55    7.7   8.0   NNW   0.67  13.0   NNW   16.3   16.0   15.4  1018.2  0.00   0.0   0.005   0.000   26.1    46   13.5   25.9   8.47 1.1680    118    1    100.0    5 
25/05/15  12:35   16.8   16.9   16.8    56    8.0   8.0   NNW   0.67  14.0   NNW   16.3   16.1   15.5  1018.2  0.00   0.0   0.005   0.000   26.1    46   13.6   26.0   8.47 1.1677    117    1    100.0    5 
25/05/15  12:40   16.9   16.9   16.8    56    8.1   7.0   NNW   0.58  11.0   NNW   16.8   16.1   16.0  1018.1  0.00   0.0   0.005   0.000   26.1    46   13.6   26.0   8.47 1.1676    117    1    100.0    5 
25/05/15  12:45   16.9   16.9   16.9    56    8.1   7.0    NW   0.58  15.0    NW   16.8   16.1   16.0  1018.1  0.00   0.0   0.005   0.000   26.2    46   13.6   26.1   8.47 1.1674    117    1    100.0    5 
25/05/15  12:50   17.0   17.0   16.9    57    8.4   7.0   NNW   0.58  14.0    NW   16.9   16.3   16.2  1018.1  0.00   0.0   0.005   0.000   26.2    46   13.7   26.1   8.47 1.1672    116    1    100.0    5 
25/05/15  12:55   17.2   17.2   17.1    57    8.6   6.0   WNW   0.50  12.0   NNW   17.2   16.4   16.4  1018.1  0.00   0.0   0.004   0.000   26.2    46   13.7   26.1   8.47 1.1671    117    1    100.0    5 
25/05/15  13:00   17.2   17.3   17.2    56    8.4   5.0   WNW   0.42  12.0   WNW   17.2   16.5   16.5  1018.0  0.00   0.0   0.004   0.000   26.3    46   13.7   26.2   8.46 1.1668    117    1    100.0    5 
25/05/15  13:05   16.8   17.2   16.8    57    8.3   8.0   WNW   0.67  13.0   WNW   16.3   16.1   15.5  1018.0  0.00   0.0   0.005   0.000   26.3    46   13.8   26.2   8.46 1.1665    116    1    100.0    5 
25/05/15  13:10   17.2   17.2   16.8    58    8.8   8.0    NW   0.67  15.0   NNW   16.7   16.5   16.0  1018.0  0.00   0.0   0.004   0.000   26.3    46   13.8   26.2   8.46 1.1664    117    1    100.0    5 
25/05/15  13:15   17.7   17.7   17.2    54    8.3   8.0    NW   0.67  14.0   NNW   17.3   16.9   16.5  1017.9  0.00   0.0   0.002   0.000   26.4    46   13.8   26.3   8.46 1.1661    116    1    100.0    5 
25/05/15  13:20   17.7   17.7   17.7    53    8.0   7.0    NW   0.58  13.0    NW   17.7   16.8   16.8  1018.0  0.00   0.0   0.002   0.000   26.4    46   13.9   26.3   8.46 1.1659    117    1    100.0    5 
25/05/15  13:25   17.7   17.7   17.6    55    8.5   6.0    NW   0.50  14.0   WNW   17.7   16.9   16.9  1018.0  0.00   0.0   0.002   0.000   26.5    46   13.9   26.3   8.46 1.1656    117    1    100.0    5 
25/05/15  13:30   18.1   18.1   17.7    53    8.3   7.0   NNW   0.58  15.0   NNW   18.1   17.2   17.2  1018.0  0.00   0.0   0.001   0.000   26.5    46   13.9   26.3   8.46 1.1657    117    1    100.0    5 
25/05/15  13:35   18.0   18.1   18.0    52    8.0   8.0   NNW   0.67  12.0    NW   17.6   17.1   16.7  1018.0  0.00   0.0   0.001   0.000   26.6    46   14.0   26.4   8.45 1.1651    117    1    100.0    5 
25/05/15  13:40   17.8   18.0   17.8    53    8.1   6.0   WNW   0.50  10.0   WNW   17.8   16.9   16.9  1017.9  0.00   0.0   0.002   0.000   26.6    46   14.0   26.4   8.45 1.1650    116    1    100.0    5 
25/05/15  13:45   17.4   17.8   17.4    53    7.7   9.0   WNW   0.75  14.0     W   16.4   16.5   15.6  1017.9  0.00   0.0   0.003   0.000   26.7    46   14.1   26.5   8.45 1.1647    117    1    100.0    5 
25/05/15  13:50   17.5   17.5   17.3    53    7.8   7.0    NW   0.58  11.0   NNW   17.5   16.6   16.6  1017.8  0.00   0.0   0.003   0.000   26.7    46   14.1   26.5   8.45 1.1646    116    1    100.0    5 
25/05/15  13:55   17.7   17.7   17.6    51    7.4   7.0    NW   0.58  10.0    NW   17.7   16.7   16.7  1017.8  0.00   0.0   0.002   0.000   26.7    45   13.8   26.5   8.35 1.1647    116    1    100.0    5 
25/05/15  14:00   17.5   17.7   17.5    52    7.5   7.0   WNW   0.58  12.0   WNW   17.5   16.6   16.6  1017.9  0.00   0.0   0.003   0.000   26.7    45   13.8   26.5   8.35 1.1648    116    1    100.0    5 
25/05/15  14:05   17.2   17.4   17.2    53    7.6   6.0   WNW   0.50  11.0    NW   17.2   16.3   16.3  1017.9  0.00   0.0   0.004   0.000   26.7    45   13.8   26.5   8.35 1.1648    116    1    100.0    5 
25/05/15  14:10   17.2   17.2   17.2    55    8.1   6.0   WNW   0.50  12.0    NW   17.2   16.4   16.4  1017.8  0.00   0.0   0.004   0.000   26.8    45   13.9   26.6   8.35 1.1644    116    1    100.0    5 
25/05/15  14:15   17.2   17.3   17.2    53    7.6   7.0   WNW   0.58  14.0    NW   17.2   16.3   16.3  1017.9  0.00   0.0   0.004   0.000   26.8    45   13.9   26.6   8.34 1.1643    117    1    100.0    5 
25/05/15  14:20   17.2   17.2   17.1    55    8.0   7.0    NW   0.58  12.0    NW   17.1   16.4   16.3  1017.8  0.00   0.0   0.004   0.000   26.8    44   13.6   26.6   8.15 1.1646    116    1    100.0    5 
25/05/15  14:25   17.2   17.2   17.1    56    8.3   6.0    NW   0.50  13.0     W   17.2   16.4   16.4  1017.9  0.00   0.0   0.004   0.000   26.8    44   13.6   26.6   8.15 1.1646    117    1    100.0    5 
25/05/15  14:30   16.8   17.2   16.8    59    8.8  10.0     W   0.83  13.0     W   15.4   16.2   14.7  1017.7  0.00   0.0   0.005   0.000   26.8    44   13.6   26.6   8.15 1.1644    116    1    100.0    5 
25/05/15  14:35   16.6   16.8   16.6    60    8.8  10.0     W   0.83  14.0     W   15.1   15.9   14.4  1017.7  0.00   0.0   0.006   0.000   26.8    44   13.6   26.6   8.15 1.1644    118    1    100.0    5 
25/05/15  14:40   16.6   16.6   16.6    60    8.8  10.0     W   0.83  14.0     W   15.1   15.9   14.4  1017.6  0.00   0.0   0.006   0.000   26.9    43   13.3   26.6   8.04 1.1645    116    1    100.0    5 
25/05/15  14:45   16.7   16.7   16.5    61    9.1   8.0   WNW   0.67  14.0   WNW   16.1   16.1   15.4  1017.6  0.00   0.0   0.006   0.000   26.9    43   13.3   26.6   8.04 1.1645    117    1    100.0    5 
25/05/15  14:50   16.8   16.8   16.7    60    9.0   8.0   WNW   0.67  17.0   WNW   16.3   16.2   15.6  1017.7  0.00   0.0   0.005   0.000   26.9    43   13.3   26.6   8.04 1.1646    116    1    100.0    5 
25/05/15  14:55   17.1   17.1   16.9    59    9.0   8.0   WNW   0.67  14.0   WNW   16.6   16.4   15.9  1017.6  0.00   0.0   0.004   0.000   26.9    43   13.3   26.6   8.04 1.1645    117    1    100.0    5 
25/05/15  15:00   17.2   17.2   17.1    58    8.8   9.0   WNW   0.75  14.0     W   16.2   16.5   15.5  1017.6  0.00   0.0   0.004   0.000   26.9    43   13.3   26.6   8.04 1.1642    117    1    100.0    5 
25/05/15  15:05   17.2   17.2   17.1    60    9.3   9.0    NW   0.75  16.0   WNW   16.2   16.6   15.6  1017.6  0.00   0.0   0.004   0.000   26.9    43   13.3   26.6   8.04 1.1642    115    1    100.0    5 
25/05/15  15:10   17.0   17.2   17.0    59    8.9  10.0   WNW   0.83  17.0   WNW   15.6   16.3   14.9  1017.7  0.00   0.0   0.005   0.000   26.9    43   13.3   26.6   8.04 1.1643    116    1    100.0    5 
25/05/15  15:15   16.9   17.0   16.9    60    9.1  10.0   WNW   0.83  15.0    NW   15.4   16.2   14.8  1017.7  0.00   0.0   0.005   0.000   26.9    43   13.3   26.6   8.04 1.1643    117    1    100.0    5 
25/05/15  15:20   16.8   16.9   16.8    59    8.8   9.0    NW   0.75  13.0   WNW   15.8   16.2   15.1  1017.7  0.00   0.0   0.005   0.000   26.9    43   13.3   26.6   8.04 1.1643    116    1    100.0    5 
25/05/15  15:25   16.8   16.8   16.8    60    9.0   6.0    NW   0.50  11.0   WNW   16.8   16.1   16.1  1017.6  0.00   0.0   0.005   0.000   27.0    43   13.4   26.7   8.04 1.1640    116    1    100.0    5 
25/05/15  15:30   16.8   16.9   16.8    59    8.8   6.0    NW   0.50  14.0    NW   16.8   16.2   16.2  1017.6  0.00   0.0   0.005   0.000   27.0    43   13.4   26.7   8.04 1.1639    116    1    100.0    5 
25/05/15  15:35   16.8   16.9   16.8    60    9.0   8.0   WNW   0.67  14.0     W   16.2   16.1   15.5  1017.6  0.00   0.0   0.005   0.000   27.0    43   13.4   26.7   8.04 1.1640    117    1    100.0    5 
25/05/15  15:40   16.6   16.8   16.6    59    8.6   7.0   WNW   0.58  11.0   WNW   16.4   15.9   15.7  1017.7  0.00   0.0   0.006   0.000   27.0    43   13.4   26.7   8.04 1.1640    118    1    100.0    5 
25/05/15  15:45   16.4   16.6   16.4    62    9.1   9.0   WNW   0.75  14.0   WNW   15.3   15.9   14.8  1018.0  0.00   0.0   0.007   0.000   27.0    42   13.0   26.6   7.85 1.1648    117    1    100.0    5 
25/05/15  15:50   15.5   16.4   15.5    71   10.3  11.0   WSW   0.92  17.0   WSW   13.4   15.2   13.1  1017.9  0.00   0.0   0.010   0.000   27.0    42   13.0   26.6   7.85 1.1647    114    1    100.0    5 
25/05/15  15:55   14.9   15.4   14.9    74   10.3  13.0   WSW   1.08  19.0   WSW   12.2   14.6   11.9  1018.0  0.00   0.0   0.012   0.000   27.0    41   12.6   26.5   7.74 1.1652    115    1    100.0    5 
25/05/15  16:00   14.7   14.9   14.7    75   10.3  12.0   WSW   1.00  19.0   WSW   12.2   14.4   11.9  1017.9  0.00   0.0   0.013   0.000   27.1    42   13.0   26.6   7.85 1.1644    117    1    100.0    5 
25/05/15  16:05   14.6   14.7   14.6    76   10.4  14.0   WSW   1.17  21.0   WSW   11.6   14.3   11.3  1018.0  0.00   0.0   0.013   0.000   27.0    41   12.6   26.5   7.74 1.1651    117    1    100.0    5 
25/05/15  16:10   14.4   14.6   14.4    78   10.6  16.0   WSW   1.33  21.0   WSW   11.1   14.2   10.9  1017.9  0.00   0.0   0.014   0.000   27.1    41   12.7   26.6   7.74 1.1648    116    1    100.0    5 
25/05/15  16:15   14.5   14.5   14.4    78   10.7  12.0   WSW   1.00  17.0   WSW   12.0   14.3   11.8  1017.9  0.00   0.0   0.013   0.000   27.1    42   13.0   26.6   7.85 1.1644    117    1    100.0    5 
25/05/15  16:20   14.6   14.6   14.5    78   10.8  12.0   WSW   1.00  18.0   WSW   12.1   14.4   11.9  1017.9  0.00   0.0   0.013   0.000   27.1    43   13.5   26.8   8.03 1.1637    116    1    100.0    5 
25/05/15  16:25   14.5   14.6   14.5    78   10.7  12.0     W   1.00  17.0   WSW   12.0   14.3   11.8  1018.0  0.00   0.0   0.013   0.000   27.2    44   13.9   26.9   8.15 1.1631    116    1    100.0    5 
25/05/15  16:30   14.4   14.6   14.4    79   10.8  12.0   WSW   1.00  17.0   WSW   11.9   14.3   11.8  1018.0  0.00   0.0   0.014   0.000   27.2    44   13.9   26.9   8.15 1.1631    117    1    100.0    5 
25/05/15  16:35   14.4   14.4   14.4    79   10.8  12.0     W   1.00  16.0     W   11.9   14.2   11.7  1017.9  0.00   0.0   0.014   0.000   27.2    43   13.6   26.9   8.03 1.1632    117    1    100.0    5 
25/05/15  16:40   14.4   14.4   14.3    80   11.0  11.0     W   0.92  15.0   WSW   12.2   14.3   12.1  1018.0  0.00   0.0   0.014   0.000   27.2    43   13.6   26.9   8.03 1.1633    117    1    100.0    5 
25/05/15  16:45   14.3   14.4   14.3    79   10.7  10.0     W   0.83  14.0     W   12.4   14.2   12.3  1018.0  0.00   0.0   0.014   0.000   27.2    43   13.6   26.9   8.03 1.1633    117    1    100.0    5 
25/05/15  16:50   14.4   14.4   14.3    80   11.0  10.0   WSW   0.83  14.0   WSW   12.5   14.3   12.4  1018.0  0.00   0.0   0.014   0.000   27.2    44   13.9   26.9   8.15 1.1628    117    1    100.0    5 
25/05/15  16:55   14.4   14.4   14.3    81   11.2  10.0   WSW   0.83  14.0     W   12.6   14.3   12.4  1018.1  0.00   0.0   0.014   0.000   27.3    44   14.0   27.0   8.15 1.1627    116    1    100.0    5 
25/05/15  17:00   14.4   14.4   14.4    80   11.0   9.0   WSW   0.75  14.0   WSW   12.9   14.3   12.8  1018.0  0.00   0.0   0.014   0.000   27.3    45   14.4   27.2   8.33 1.1619    116    1    100.0    5 
25/05/15  17:05   14.6   14.6   14.4    81   11.3   5.0     W   0.42  12.0   WSW   14.3   14.4   14.2  1018.0  0.00   0.0   0.013   0.000   27.3    47   15.0   27.3   8.63 1.1610    117    1    100.0    5 
25/05/15  17:10   14.6   14.6   14.6    80   11.1   8.0     W   0.67  12.0     W   13.5   14.4   13.4  1017.8  0.00   0.0   0.013   0.000   27.4    46   14.7   27.3   8.45 1.1610    115    1    100.0    5 
25/05/15  17:15   14.6   14.6   14.6    79   11.0   7.0     W   0.58  10.0   WSW   14.0   14.4   13.8  1017.9  0.00   0.0   0.013   0.000   27.4    46   14.7   27.3   8.45 1.1611    116    1    100.0    5 
25/05/15  17:20   14.6   14.6   14.6    78   10.8   6.0     W   0.50   9.0     W   14.2   14.4   14.1  1017.9  0.00   0.0   0.013   0.000   27.4    47   15.1   27.4   8.62 1.1604    116    1    100.0    5 
25/05/15  17:25   14.7   14.7   14.6    78   10.9   4.0   WNW   0.33   7.0   WNW   14.7   14.6   14.6  1017.9  0.00   0.0   0.013   0.000   27.4    48   15.5   27.5   8.82 1.1599    116    1    100.0    5 
25/05/15  17:30   14.8   14.8   14.7    78   11.0   2.0   WNW   0.17   4.0    NW   14.8   14.7   14.7  1017.8  0.00   0.0   0.012   0.000   27.5    50   16.1   27.7   9.12 1.1587    116    1    100.0    5 
25/05/15  17:35   14.8   14.8   14.8    76   10.6   4.0    NW   0.33   9.0    NW   14.8   14.6   14.6  1017.9  0.00   0.0   0.012   0.000   27.5    50   16.1   27.7   9.12 1.1588    116    1    100.0    5 
25/05/15  17:40   14.9   14.9   14.8    75   10.5   3.0    NW   0.25   5.0    NW   14.9   14.7   14.7  1017.9  0.00   0.0   0.012   0.000   27.6    50   16.2   27.8   9.12 1.1585    117    1    100.0    5 
25/05/15  17:45   15.1   15.1   14.9    74   10.5   4.0     N   0.33   8.0   NNW   15.1   14.8   14.8  1017.9  0.00   0.0   0.011   0.000   27.6    50   16.2   27.8   9.12 1.1586    117    1    100.0    5 
25/05/15  17:50   15.2   15.2   15.1    71    9.9   5.0    NW   0.42   9.0    NW   15.1   14.8   14.8  1017.9  0.00   0.0   0.011   0.000   27.6    50   16.2   27.9   9.12 1.1583    117    1    100.0    5 
25/05/15  17:55   15.3   15.3   15.2    70    9.8   4.0    NW   0.33   8.0    NW   15.3   14.9   14.9  1018.0  0.00   0.0   0.011   0.000   27.6    49   15.9   27.8   8.92 1.1587    116    1    100.0    5 
25/05/15  18:00   15.4   15.4   15.3    70    9.9   2.0    NW   0.17   5.0    NW   15.4   15.1   15.1  1018.0  0.00   0.0   0.010   0.000   27.7    49   16.0   27.9   8.91 1.1585    115    1    100.0    5 
25/05/15  18:05   15.4   15.4   15.4    67    9.3   6.0    NW   0.50  11.0   NNW   15.2   15.0   14.8  1018.0  0.00   0.0   0.010   0.000   27.7    49   16.0   27.9   8.91 1.1582    117    1    100.0    5 
25/05/15  18:10   15.5   15.5   15.4    67    9.4   6.0    NW   0.50   9.0   NNW   15.3   15.1   14.8  1018.0  0.00   0.0   0.010   0.000   27.7    48   15.7   27.9   8.81 1.1587    117    1    100.0    5 
25/05/15  18:15   15.5   15.5   15.4    67    9.4   6.0    NW   0.50  10.0    NW   15.3   15.1   14.8  1018.1  0.00   0.0   0.010   0.000   27.8    48   15.8   27.9   8.81 1.1584    115    1    100.0    5 
25/05/15  18:20   15.5   15.5   15.5    67    9.4   6.0   NNW   0.50   9.0    NW   15.3   15.1   14.8  1018.1  0.00   0.0   0.010   0.000   27.8    48   15.8   27.9   8.81 1.1584    117    1    100.0    5 
25/05/15  18:25   15.6   15.6   15.5    67    9.4   4.0   NNW   0.33   8.0    NW   15.6   15.1   15.1  1018.1  0.00   0.0   0.010   0.000   27.8    48   15.8   27.9   8.81 1.1585    114    1    100.0    5 
25/05/15  18:30   15.6   15.6   15.6    67    9.4   4.0   NNW   0.33   7.0   NNW   15.6   15.1   15.1  1018.2  0.00   0.0   0.010   0.000   27.8    47   15.5   27.9   8.61 1.1588    116    1    100.0    5 
25/05/15  18:35   15.6   15.6   15.6    67    9.4   3.0    NW   0.25   7.0    NW   15.6   15.1   15.1  1018.2  0.00   0.0   0.010   0.000   27.8    47   15.5   27.9   8.61 1.1588    117    1    100.0    5 
25/05/15  18:40   15.6   15.6   15.6    66    9.2   4.0    NW   0.33   8.0    NW   15.6   15.1   15.1  1018.3  0.00   0.0   0.010   0.000   27.8    47   15.4   27.9   8.61 1.1592    116    1    100.0    5 
25/05/15  18:45   15.6   15.6   15.6    67    9.4   3.0   WNW   0.25   5.0   WNW   15.6   15.1   15.1  1018.3  0.00   0.0   0.010   0.000   27.8    47   15.4   27.9   8.61 1.1592    116    1    100.0    5 
25/05/15  18:50   15.6   15.6   15.6    67    9.4   3.0   WNW   0.25   6.0   WNW   15.6   15.1   15.1  1018.3  0.00   0.0   0.010   0.000   27.8    47   15.5   27.9   8.61 1.1589    118    1    100.0    5 
25/05/15  18:55   15.5   15.6   15.5    67    9.4   3.0    NW   0.25   6.0    NW   15.5   15.1   15.1  1018.4  0.00   0.0   0.010   0.000   27.8    47   15.4   27.9   8.61 1.1592    117    1    100.0    5 
25/05/15  19:00   15.6   15.6   15.5    68    9.7   2.0   WNW   0.17   5.0    NW   15.6   15.2   15.2  1018.4  0.00   0.0   0.010   0.000   27.8    47   15.4   27.9   8.61 1.1592    115    1    100.0    5 
25/05/15  19:05   15.6   15.6   15.5    68    9.7   3.0    NW   0.25   5.0   NNW   15.6   15.2   15.2  1018.4  0.00   0.0   0.010   0.000   27.8    46   15.1   27.8   8.45 1.1597    116    1    100.0    5 
25/05/15  19:10   15.6   15.6   15.6    67    9.4   3.0    NW   0.25   6.0    NW   15.6   15.1   15.1  1018.5  0.00   0.0   0.010   0.000   27.8    46   15.1   27.8   8.45 1.1598    115    1    100.0    5 
25/05/15  19:15   15.6   15.6   15.6    68    9.7   4.0   NNW   0.33   5.0     N   15.6   15.2   15.2  1018.5  0.00   0.0   0.010   0.000   27.7    46   15.0   27.7   8.45 1.1601    116    1    100.0    5 
25/05/15  19:20   15.6   15.6   15.6    68    9.7   3.0   NNW   0.25   7.0   NNW   15.6   15.2   15.2  1018.5  0.00   0.0   0.010   0.000   27.7    46   15.0   27.7   8.45 1.1601    116    1    100.0    5 
25/05/15  19:25   15.6   15.6   15.6    68    9.7   4.0   NNW   0.33   7.0   NNW   15.6   15.2   15.2  1018.5  0.00   0.0   0.010   0.000   27.7    46   15.0   27.7   8.45 1.1601    116    1    100.0    5 
25/05/15  19:30   15.5   15.6   15.5    68    9.6   3.0   NNW   0.25   5.0     N   15.5   15.1   15.1  1018.5  0.00   0.0   0.010   0.000   27.7    46   15.0   27.7   8.45 1.1601    117    1    100.0    5 
25/05/15  19:35   15.6   15.6   15.5    68    9.7   2.0   NNW   0.17   6.0   NNE   15.6   15.2   15.2  1018.5  0.00   0.0   0.010   0.000   27.7    46   15.0   27.7   8.45 1.1604    117    1    100.0    5 
25/05/15  19:40   15.5   15.6   15.5    68    9.6   2.0     N   0.17   5.0   NNW   15.5   15.1   15.1  1018.6  0.00   0.0   0.010   0.000   27.7    46   15.0   27.7   8.45 1.1605    117    1    100.0    5 
25/05/15  19:45   15.5   15.5   15.5    67    9.4   1.0     N   0.08   3.0     N   15.5   15.1   15.1  1018.5  0.00   0.0   0.010   0.000   27.7    46   15.0   27.7   8.45 1.1604    117    1    100.0    5 
25/05/15  19:50   15.5   15.5   15.5    67    9.4   2.0     N   0.17   4.0     N   15.5   15.1   15.1  1018.5  0.00   0.0   0.010   0.000   27.6    46   14.9   27.6   8.45 1.1607    115    1    100.0    5 
25/05/15  19:55   15.5   15.5   15.5    67    9.4   2.0    NW   0.17   4.0   NNW   15.5   15.1   15.1  1018.5  0.00   0.0   0.010   0.000   27.6    46   14.9   27.6   8.45 1.1607    118    1    100.0    5 
25/05/15  20:00   15.4   15.5   15.4    67    9.3   2.0   NNW   0.17   5.0   NNW   15.4   15.0   15.0  1018.6  0.00   0.0   0.010   0.000   27.6    46   14.9   27.6   8.45 1.1608    115    1    100.0    5 
25/05/15  20:05   15.4   15.4   15.4    67    9.3   1.0   NNW   0.08   3.0   NNW   15.4   15.0   15.0  1018.6  0.00   0.0   0.010   0.000   27.6    46   14.9   27.5   8.45 1.1611    117    1    100.0    5 
25/05/15  20:10   15.4   15.4   15.4    67    9.3   3.0     N   0.25   5.0     N   15.4   15.0   15.0  1018.6  0.00   0.0   0.010   0.000   27.6    46   14.9   27.5   8.45 1.1611    116    1    100.0    5 
25/05/15  20:15   15.4   15.4   15.4    67    9.3   3.0     N   0.25   5.0   NNE   15.4   14.9   14.9  1018.7  0.00   0.0   0.010   0.000   27.6    46   14.9   27.5   8.45 1.1612    117    1    100.0    5 
25/05/15  20:20   15.4   15.4   15.3    67    9.3   3.0     N   0.25   7.0     N   15.4   14.9   14.9  1018.6  0.00   0.0   0.010   0.000   27.5    46   14.8   27.4   8.45 1.1614    117    1    100.0    5 
25/05/15  20:25   15.3   15.4   15.3    67    9.2   4.0   NNW   0.33   6.0   NNW   15.3   14.8   14.8  1018.7  0.00   0.0   0.011   0.000   27.5    46   14.8   27.4   8.45 1.1615    117    1    100.0    5 
25/05/15  20:30   15.3   15.3   15.3    68    9.4   3.0   NNW   0.25   5.0   NNW   15.3   14.8   14.8  1018.7  0.00   0.0   0.011   0.000   27.5    45   14.5   27.4   8.32 1.1619    115    1    100.0    5 
25/05/15  20:35   15.2   15.3   15.2    68    9.4   2.0   NNW   0.17   3.0   NNW   15.2   14.8   14.8  1018.8  0.00   0.0   0.011   0.000   27.4    45   14.5   27.3   8.32 1.1623    117    1    100.0    5 
25/05/15  20:40   15.2   15.2   15.2    68    9.3   2.0   NNW   0.17   4.0   NNW   15.2   14.7   14.7  1018.8  0.00   0.0   0.011   0.000   27.4    45   14.5   27.3   8.32 1.1623    117    1    100.0    5 
25/05/15  20:45   15.1   15.2   15.1    69    9.5   2.0   NNW   0.17   4.0   NNW   15.1   14.7   14.7  1018.8  0.00   0.0   0.011   0.000   27.4    45   14.4   27.2   8.32 1.1626    117    1    100.0    5 
25/05/15  20:50   15.1   15.1   15.1    69    9.4   4.0   NNW   0.33   6.0     N   15.1   14.6   14.6  1018.9  0.00   0.0   0.011   0.000   27.4    45   14.4   27.2   8.32 1.1627    116    1    100.0    5 
25/05/15  20:55   15.0   15.1   15.0    69    9.4   2.0   NNW   0.17   5.0   NNW   15.0   14.6   14.6  1019.0  0.00   0.0   0.012   0.000   27.4    45   14.4   27.2   8.32 1.1627    117    1    100.0    5 
25/05/15  21:00   14.9   15.0   14.9    70    9.5   3.0   NNW   0.25   6.0    NW   14.9   14.6   14.6  1019.0  0.00   0.0   0.012   0.000   27.4    45   14.4   27.2   8.32 1.1628    116    1    100.0    5 
25/05/15  21:05   14.9   14.9   14.9    70    9.5   3.0    NW   0.25   6.0   NNW   14.9   14.6   14.6  1019.1  0.00   0.0   0.012   0.000   27.3    45   14.4   27.2   8.33 1.1631    117    1    100.0    5 
25/05/15  21:10   14.9   14.9   14.9    70    9.5   3.0    NW   0.25   5.0    NW   14.9   14.5   14.5  1019.1  0.00   0.0   0.012   0.000   27.3    45   14.3   27.1   8.33 1.1634    116    1    100.0    5 
25/05/15  21:15   14.8   14.9   14.8    71    9.6   3.0   NNW   0.25   6.0   NNW   14.8   14.4   14.4  1019.1  0.00   0.0   0.012   0.000   27.3    45   14.3   27.1   8.33 1.1634    117    1    100.0    5 
25/05/15  21:20   14.8   14.8   14.8    71    9.6   2.0   NNW   0.17   5.0   NNW   14.8   14.4   14.4  1019.2  0.00   0.0   0.012   0.000   27.3    45   14.3   27.1   8.33 1.1635    117    1    100.0    5 
25/05/15  21:25   14.8   14.8   14.8    72    9.8   3.0   NNW   0.25   5.0   NNW   14.8   14.4   14.4  1019.2  0.00   0.0   0.012   0.000   27.2    45   14.3   27.0   8.33 1.1639    116    1    100.0    5 
25/05/15  21:30   14.8   14.8   14.7    72    9.8   1.0   NNW   0.08   5.0   NNW   14.8   14.4   14.4  1019.3  0.00   0.0   0.012   0.000   27.2    45   14.3   27.0   8.33 1.1639    116    1    100.0    5 
25/05/15  21:35   14.7   14.8   14.7    72    9.7   2.0   NNW   0.17   4.0   NNW   14.7   14.3   14.3  1019.3  0.00   0.0   0.013   0.000   27.2    45   14.2   26.9   8.33 1.1642    117    1    100.0    5 
25/05/15  21:40   14.7   14.7   14.7    73    9.9   2.0     N   0.17   5.0   NNW   14.7   14.3   14.3  1019.2  0.00   0.0   0.013   0.000   27.2    45   14.2   26.9   8.33 1.1642    116    1    100.0    5 
25/05/15  21:45   14.6   14.7   14.6    73    9.8   3.0   NNW   0.25   6.0   NNW   14.6   14.3   14.3  1019.3  0.00   0.0   0.013   0.000   27.1    45   14.2   26.9   8.33 1.1646    116    1    100.0    5 
25/05/15  21:50   14.6   14.7   14.6    73    9.8   3.0   NNW   0.25   7.0     N   14.6   14.3   14.3  1019.4  0.00   0.0   0.013   0.000   27.1    45   14.2   26.9   8.33 1.1646    117    1    100.0    5 
25/05/15  21:55   14.6   14.6   14.6    73    9.8   3.0   NNW   0.25   5.0   NNW   14.6   14.2   14.2  1019.4  0.00   0.0   0.013   0.000   27.1    45   14.1   26.8   8.34 1.1649    117    1    100.0    5 
25/05/15  22:00   14.6   14.6   14.6    73    9.8   4.0   NNW   0.33   7.0   NNW   14.6   14.2   14.2  1019.4  0.00   0.0   0.013   0.000   27.1    45   14.1   26.8   8.34 1.1650    117    1    100.0    5 
25/05/15  22:05   14.5   14.6   14.5    73    9.7   3.0   NNW   0.25   7.0   NNW   14.5   14.2   14.2  1019.5  0.00   0.0   0.013   0.000   27.0    45   14.1   26.8   8.34 1.1653    116    1    100.0    5 
25/05/15  22:10   14.5   14.5   14.5    73    9.7   3.0   NNW   0.25   7.0   NNW   14.5   14.2   14.2  1019.5  0.00   0.0   0.013   0.000   27.0    45   14.1   26.8   8.34 1.1653    117    1    100.0    5 
25/05/15  22:15   14.4   14.5   14.4    73    9.7   3.0   NNW   0.25   5.0   NNW   14.4   14.1   14.1  1019.5  0.00   0.0   0.014   0.000   27.0    45   14.1   26.8   8.34 1.1653    116    1    100.0    5 
25/05/15  22:20   14.4   14.4   14.4    73    9.7   3.0   NNW   0.25   6.0   NNW   14.4   14.1   14.1  1019.4  0.00   0.0   0.014   0.000   26.9    45   14.0   26.7   8.34 1.1655    117    1    100.0    5 
25/05/15  22:25   14.4   14.4   14.4    73    9.6   3.0   NNW   0.25   5.0   NNW   14.4   14.1   14.1  1019.4  0.00   0.0   0.014   0.000   26.9    45   14.0   26.7   8.34 1.1655    117    1    100.0    5 
25/05/15  22:30   14.4   14.4   14.3    73    9.6   3.0   NNW   0.25   5.0   NNW   14.4   14.1   14.1  1019.5  0.00   0.0   0.014   0.000   26.9    45   14.0   26.7   8.34 1.1659    117    1    100.0    5 
25/05/15  22:35   14.3   14.4   14.3    73    9.6   2.0   NNW   0.17   4.0   NNW   14.3   14.0   14.0  1019.5  0.00   0.0   0.014   0.000   26.9    45   14.0   26.7   8.34 1.1659    117    1    100.0    5 
25/05/15  22:40   14.3   14.3   14.3    73    9.6   3.0   NNW   0.25   6.0   NNW   14.3   14.0   14.0  1019.5  0.00   0.0   0.014   0.000   26.8    44   13.6   26.6   8.15 1.1665    117    1    100.0    5 
25/05/15  22:45   14.3   14.3   14.3    73    9.6   3.0   NNW   0.25   6.0   NNW   14.3   14.0   14.0  1019.5  0.00   0.0   0.014   0.000   26.8    44   13.6   26.6   8.15 1.1665    116    1    100.0    5 
25/05/15  22:50   14.3   14.3   14.3    73    9.5   3.0     N   0.25   7.0   NNW   14.3   13.9   13.9  1019.5  0.00   0.0   0.014   0.000   26.8    44   13.6   26.6   8.15 1.1665    116    1    100.0    5 
25/05/15  22:55   14.2   14.3   14.2    73    9.4   3.0     N   0.25   6.0   NNW   14.2   13.9   13.9  1019.6  0.00   0.0   0.014   0.000   26.8    44   13.5   26.5   8.15 1.1669    117    1    100.0    5 
25/05/15  23:00   14.2   14.3   14.2    73    9.4   2.0   NNW   0.17   5.0    NW   14.2   13.9   13.9  1019.6  0.00   0.0   0.014   0.000   26.8    44   13.5   26.5   8.15 1.1670    115    1    100.0    5 
25/05/15  23:05   14.2   14.2   14.2    73    9.4   3.0   NNW   0.25   6.0   NNW   14.2   13.9   13.9  1019.8  0.00   0.0   0.014   0.000   26.7    44   13.5   26.4   8.15 1.1674    117    1    100.0    5 
25/05/15  23:10   14.2   14.2   14.2    73    9.4   3.0   NNW   0.25   5.0     N   14.2   13.8   13.8  1019.7  0.00   0.0   0.014   0.000   26.7    44   13.5   26.4   8.15 1.1674    116    1    100.0    5 
25/05/15  23:15   14.2   14.2   14.2    73    9.4   2.0   NNW   0.17   4.0   NNW   14.2   13.8   13.8  1019.8  0.00   0.0   0.014   0.000   26.7    44   13.5   26.4   8.15 1.1674    115    1    100.0    5 
25/05/15  23:20   14.2   14.2   14.2    73    9.4   3.0   NNW   0.25   7.0     N   14.2   13.8   13.8  1019.8  0.00   0.0   0.014   0.000   26.7    44   13.5   26.4   8.15 1.1674    116    1    100.0    5 
25/05/15  23:25   14.1   14.2   14.1    73    9.3   4.0   NNW   0.33   7.0    NW   14.1   13.8   13.8  1019.9  0.00   0.0   0.015   0.000   26.7    44   13.4   26.4   8.15 1.1678    116    1    100.0    5 
25/05/15  23:30   14.1   14.2   14.1    73    9.3   4.0   NNW   0.33   7.0   NNW   14.1   13.8   13.8  1019.9  0.00   0.0   0.015   0.000   26.6    44   13.4   26.3   8.15 1.1681    117    1    100.0    5 
25/05/15  23:35   14.1   14.1   14.1    73    9.3   3.0   NNW   0.25   6.0   NNW   14.1   13.8   13.8  1019.8  0.00   0.0   0.015   0.000   26.6    44   13.4   26.3   8.15 1.1680    117    1    100.0    5 
25/05/15  23:40   14.1   14.1   14.1    73    9.3   4.0   NNW   0.33   6.0   NNW   14.1   13.7   13.7  1019.8  0.00   0.0   0.015   0.000   26.6    44   13.4   26.3   8.15 1.1680    116    1    100.0    5 
25/05/15  23:45   14.0   14.1   14.0    73    9.2   4.0   NNW   0.33  10.0     N   14.0   13.7   13.7  1019.8  0.00   0.0   0.015   0.000   26.6    44   13.4   26.3   8.15 1.1680    116    1    100.0    5 
25/05/15  23:50   13.9   14.0   13.9    73    9.2   5.0     N   0.42   8.0   NNW   13.6   13.6   13.3  1019.8  0.00   0.0   0.015   0.000   26.6    44   13.3   26.3   8.15 1.1683    117    1    100.0    5 
25/05/15  23:55   13.9   13.9   13.9    74    9.3   3.0     N   0.25   9.0   NNE   13.9   13.6   13.6  1019.9  0.00   0.0   0.015   0.000   26.6    44   13.3   26.3   8.15 1.1684    116    1    100.0    5 
26/05/15  00:00   13.9   13.9   13.8    73    9.1   3.0   NNW   0.25   7.0   NNW   13.9   13.6   13.6  1019.9  0.00   0.0   0.015   0.000   26.5    44   13.3   26.2   8.16 1.1687    116    1    100.0    5 
26/05/15   0:05   13.8   13.9   13.8    73    9.0   4.0   NNW   0.33   7.0   NNW   13.8   13.4   13.4  1019.9  0.00   0.0   0.016   0.000   26.5    44   13.3   26.2   8.16 1.1687    115    1    100.0    5 
26/05/15   0:10   13.7   13.8   13.7    74    9.2   3.0   NNW   0.25   7.0    NW   13.7   13.4   13.4  1020.0  0.00   0.0   0.016   0.000   26.4    44   13.2   26.2   8.16 1.1690    116    1    100.0    5 
26/05/15   0:15   13.7   13.8   13.7    74    9.1   4.0   NNW   0.33   7.0   NNW   13.6   13.3   13.3  1020.0  0.00   0.0   0.016   0.000   26.4    44   13.2   26.2   8.16 1.1691    116    1    100.0    5 
26/05/15   0:20   13.6   13.7   13.6    74    9.0   4.0   NNW   0.33   8.0   NNW   13.5   13.2   13.2  1020.0  0.00   0.0   0.017   0.000   26.4    44   13.2   26.2   8.16 1.1690    116    1    100.0    5 
26/05/15   0:25   13.4   13.6   13.4    74    8.8   4.0   NNW   0.33   8.0   NNW   13.3   13.1   12.9  1020.0  0.00   0.0   0.017   0.000   26.4    44   13.2   26.1   8.16 1.1693    115    1    100.0    5 
26/05/15   0:30   13.3   13.4   13.3    75    8.9   4.0   NNW   0.33   7.0   NNW   13.2   12.9   12.8  1020.0  0.00   0.0   0.018   0.000   26.4    44   13.2   26.1   8.16 1.1693    118    1    100.0    5 
26/05/15   0:35   13.2   13.3   13.2    75    8.8   4.0   NNW   0.33   8.0   NNW   13.0   12.8   12.7  1020.0  0.00   0.0   0.018   0.000   26.3    44   13.1   26.1   8.16 1.1696    116    1    100.0    5 
26/05/15   0:40   13.0   13.2   13.0    76    8.9   4.0   NNW   0.33   7.0   NNE   12.8   12.7   12.6  1019.9  0.00   0.0   0.019   0.000   26.3    44   13.1   26.1   8.16 1.1695    117    1    100.0    5 
26/05/15   0:45   12.9   13.0   12.9    76    8.8   5.0   NNW   0.42   8.0   NNW   12.4   12.6   12.1  1020.0  0.00   0.0   0.019   0.000   26.3    44   13.1   26.1   8.16 1.1696    116    1    100.0    5 
26/05/15   0:50   12.8   12.9   12.8    76    8.7   4.0    NW   0.33   7.0   NNW   12.6   12.5   12.3  1020.0  0.00   0.0   0.019   0.000   26.3    44   13.1   26.1   8.16 1.1699    115    1    100.0    5 
26/05/15   0:55   12.7   12.8   12.7    76    8.5   3.0    NW   0.25   4.0    NW   12.7   12.4   12.4  1020.2  0.00   0.0   0.020   0.000   26.2    44   13.0   26.0   8.17 1.1704    115    1    100.0    5 
26/05/15   1:00   12.6   12.7   12.6    77    8.6   3.0    NW   0.25   5.0    NW   12.6   12.3   12.3  1020.1  0.00   0.0   0.020   0.000   26.2    44   13.0   26.0   8.17 1.1703    117    1    100.0    5 
26/05/15   1:05   12.5   12.6   12.5    77    8.6   2.0    NW   0.17   5.0    NW   12.5   12.3   12.3  1020.2  0.00   0.0   0.020   0.000   26.2    44   13.0   26.0   8.17 1.1704    117    1    100.0    5 
26/05/15   1:10   12.4   12.5   12.4    77    8.5   3.0    NW   0.25   6.0   WNW   12.4   12.2   12.2  1020.2  0.00   0.0   0.020   0.000   26.2    44   13.0   25.9   8.17 1.1707    115    1    100.0    5 
26/05/15   1:15   12.3   12.4   12.3    77    8.4   3.0    NW   0.25   6.0    NW   12.3   12.1   12.1  1020.3  0.00   0.0   0.021   0.000   26.2    44   13.0   25.9   8.17 1.1707    117    1    100.0    5 
26/05/15   1:20   12.2   12.3   12.2    78    8.5   3.0    NW   0.25   5.0    NW   12.2   12.0   12.0  1020.4  0.00   0.0   0.021   0.000   26.1    44   12.9   25.9   8.17 1.1711    115    1    100.0    5 
26/05/15   1:25   12.2   12.2   12.2    78    8.4   3.0    NW   0.25   5.0   WNW   12.2   11.9   11.9  1020.5  0.00   0.0   0.021   0.000   26.1    44   12.9   25.9   8.17 1.1712    116    1    100.0    5 
26/05/15   1:30   12.1   12.1   12.1    78    8.3   3.0    NW   0.25   5.0    NW   12.1   11.8   11.8  1020.5  0.00   0.0   0.022   0.000   26.1    44   12.9   25.8   8.17 1.1715    115    1    100.0    5 
26/05/15   1:35   11.9   12.1   11.9    78    8.2   4.0    NW   0.33   5.0   NNW   11.6   11.7   11.4  1020.6  0.00   0.0   0.022   0.000   26.1    44   12.9   25.8   8.17 1.1716    117    1    100.0    5 
26/05/15   1:40   11.9   11.9   11.9    78    8.2   3.0    NW   0.25   5.0   NNW   11.9   11.7   11.7  1020.6  0.00   0.0   0.022   0.000   26.1    44   12.9   25.8   8.17 1.1717    116    1    100.0    5 
26/05/15   1:45   11.8   11.9   11.8    78    8.1   3.0   NNW   0.25   5.0   NNW   11.8   11.6   11.6  1020.6  0.00   0.0   0.023   0.000   26.0    44   12.8   25.8   8.17 1.1719    116    1    100.0    5 
26/05/15   1:50   11.8   11.8   11.8    79    8.3   2.0   NNW   0.17   4.0   NNW   11.8   11.6   11.6  1020.6  0.00   0.0   0.023   0.000   26.0    44   12.8   25.8   8.17 1.1719    117    1    100.0    5 
26/05/15   1:55   11.7   11.8   11.7    79    8.2   2.0   NNW   0.17   4.0   NNW   11.7   11.6   11.6  1020.5  0.00   0.0   0.023   0.000   25.9    44   12.8   25.7   8.18 1.1721    116    1    100.0    5 
26/05/15   2:00   11.7   11.7   11.7    79    8.1   2.0   NNW   0.17   4.0     N   11.7   11.5   11.5  1020.6  0.00   0.0   0.023   0.000   25.9    44   12.8   25.7   8.18 1.1722    117    1    100.0    5 
26/05/15   2:05   11.7   11.7   11.7    79    8.1   2.0   NNW   0.17   3.0   NNW   11.7   11.5   11.5  1020.6  0.00   0.0   0.023   0.000   25.9    44   12.7   25.7   8.18 1.1725    116    1    100.0    5 
26/05/15   2:10   11.6   11.7   11.6    79    8.1   3.0   NNW   0.25   4.0   NNW   11.6   11.4   11.4  1020.6  0.00   0.0   0.023   0.000   25.9    44   12.7   25.7   8.18 1.1725    117    1    100.0    5 
26/05/15   2:15   11.6   11.6   11.6    79    8.1   3.0    NW   0.25   5.0    NW   11.6   11.4   11.4  1020.6  0.00   0.0   0.023   0.000   25.8    44   12.7   25.6   8.18 1.1727    117    1    100.0    5 
26/05/15   2:20   11.6   11.6   11.6    79    8.1   3.0    NW   0.25   5.0    NW   11.6   11.4   11.4  1020.6  0.00   0.0   0.023   0.000   25.8    44   12.7   25.6   8.18 1.1728    116    1    100.0    5 
26/05/15   2:25   11.6   11.7   11.6    79    8.1   3.0    NW   0.25   4.0   NNW   11.6   11.4   11.4  1020.7  0.00   0.0   0.023   0.000   25.8    44   12.6   25.5   8.18 1.1731    116    1    100.0    5 
26/05/15   2:30   11.7   11.7   11.6    80    8.3   3.0    NW   0.25   4.0   NNW   11.7   11.5   11.5  1020.7  0.00   0.0   0.023   0.000   25.8    44   12.6   25.5   8.18 1.1731    116    1    100.0    5 
26/05/15   2:35   11.7   11.7   11.7    79    8.1   2.0    NW   0.17   3.0    NW   11.7   11.5   11.5  1020.7  0.00   0.0   0.023   0.000   25.7    44   12.6   25.4   8.18 1.1734    118    1    100.0    5 
26/05/15   2:40   11.7   11.7   11.7    79    8.1   2.0    NW   0.17   3.0    NW   11.7   11.5   11.5  1020.8  0.00   0.0   0.023   0.000   25.7    44   12.6   25.4   8.18 1.1736    117    1    100.0    5 
26/05/15   2:45   11.6   11.7   11.6    79    8.1   2.0    NW   0.17   3.0    NW   11.6   11.4   11.4  1020.8  0.00   0.0   0.023   0.000   25.7    44   12.6   25.4   8.18 1.1735    117    1    100.0    5 
26/05/15   2:50   11.6   11.6   11.6    79    8.0   2.0    NW   0.17   3.0    NW   11.6   11.4   11.4  1020.8  0.00   0.0   0.024   0.000   25.7    44   12.5   25.4   8.19 1.1738    117    1    100.0    5 
26/05/15   2:55   11.5   11.6   11.5    79    8.0   2.0   NNW   0.17   4.0   NNW   11.5   11.3   11.3  1020.8  0.00   0.0   0.024   0.000   25.7    44   12.5   25.4   8.19 1.1738    117    1    100.0    5 
26/05/15   3:00   11.4   11.5   11.4    79    7.9   3.0   NNW   0.25   4.0   NNW   11.4   11.2   11.2  1020.8  0.00   0.0   0.024   0.000   25.6    44   12.4   25.3   8.19 1.1741    117    1    100.0    5 
26/05/15   3:05   11.3   11.4   11.3    80    8.0   3.0   NNW   0.25   5.0   NNW   11.2   11.2   11.1  1020.8  0.00   0.0   0.024   0.000   25.6    44   12.4   25.3   8.19 1.1741    117    1    100.0    5 
26/05/15   3:10   11.2   11.3   11.2    80    7.9   3.0   NNW   0.25   4.0   NNW   11.2   11.1   11.1  1020.9  0.00   0.0   0.025   0.000   25.6    44   12.4   25.3   8.19 1.1742    116    1    100.0    5 
26/05/15   3:15   11.2   11.2   11.2    80    7.8   3.0   NNW   0.25   5.0   NNW   11.1   11.1   11.0  1020.9  0.00   0.0   0.025   0.000   25.6    44   12.4   25.3   8.19 1.1742    116    1    100.0    5 
26/05/15   3:20   11.2   11.2   11.1    80    7.8   2.0     N   0.17   4.0     N   11.2   11.1   11.1  1020.9  0.00   0.0   0.025   0.000   25.6    44   12.4   25.3   8.19 1.1745    117    1    100.0    5 
26/05/15   3:25   11.1   11.2   11.1    80    7.8   2.0   NNW   0.17   5.0   NNW   11.1   11.0   11.0  1020.8  0.00   0.0   0.025   0.000   25.5    44   12.3   25.2   8.19 1.1747    117    1    100.0    5 
26/05/15   3:30   11.1   11.1   11.1    80    7.7   2.0   NNW   0.17   4.0   NNW   11.1   10.9   10.9  1020.9  0.00   0.0   0.025   0.000   25.5    44   12.3   25.2   8.19 1.1747    117    1    100.0    5 
26/05/15   3:35   11.0   11.1   11.0    80    7.7   2.0   NNW   0.17   4.0    NW   11.0   10.9   10.9  1020.8  0.00   0.0   0.025   0.000   25.5    44   12.3   25.2   8.19 1.1746    117    1    100.0    5 
26/05/15   3:40   10.9   11.0   10.9    80    7.6   3.0   NNW   0.25   4.0    NW   10.9   10.8   10.8  1020.8  0.00   0.0   0.026   0.000   25.4    44   12.3   25.2   8.19 1.1749    117    1    100.0    5 
26/05/15   3:45   10.9   10.9   10.8    80    7.6   2.0   NNW   0.17   4.0   NNW   10.9   10.8   10.8  1020.8  0.00   0.0   0.026   0.000   25.4    44   12.3   25.2   8.19 1.1749    117    1    100.0    5 
26/05/15   3:50   10.8   10.8   10.8    81    7.6   2.0   NNW   0.17   3.0   NNW   10.8   10.7   10.7  1020.8  0.00   0.0   0.026   0.000   25.4    44   12.2   25.1   8.20 1.1751    115    1    100.0    5 
26/05/15   3:55   10.7   10.8   10.7    81    7.6   3.0   NNW   0.25   5.0   NNW   10.6   10.7   10.6  1020.8  0.00   0.0   0.026   0.000   25.4    44   12.2   25.1   8.20 1.1752    117    1    100.0    5 
26/05/15   4:00   10.6   10.7   10.6    81    7.5   2.0   NNW   0.17   3.0   NNW   10.6   10.6   10.6  1020.8  0.00   0.0   0.027   0.000   25.4    44   12.2   25.1   8.20 1.1751    117    1    100.0    5 
26/05/15   4:05   10.6   10.6   10.6    81    7.4   2.0   NNW   0.17   3.0   NNW   10.6   10.5   10.5  1020.9  0.00   0.0   0.027   0.000   25.3    44   12.2   25.1   8.20 1.1756    117    1    100.0    5 
26/05/15   4:10   10.4   10.6   10.4    81    7.3   2.0   NNW   0.17   3.0   NNW   10.4   10.4   10.4  1020.9  0.00   0.0   0.027   0.000   25.3    44   12.2   25.1   8.20 1.1756    114    1    100.0    5 
26/05/15   4:15   10.4   10.4   10.4    81    7.3   2.0   NNW   0.17   4.0   NNW   10.4   10.4   10.4  1020.9  0.00   0.0   0.028   0.000   25.3    44   12.1   25.0   8.20 1.1758    116    1    100.0    5 
26/05/15   4:20   10.3   10.4   10.3    81    7.2   2.0   NNW   0.17   5.0   NNW   10.3   10.3   10.3  1021.0  0.00   0.0   0.028   0.000   25.3    44   12.1   25.0   8.20 1.1760    116    1    100.0    5 
26/05/15   4:25   10.3   10.3   10.3    82    7.3   2.0   NNW   0.17   3.0   NNW   10.3   10.3   10.3  1021.1  0.00   0.0   0.028   0.000   25.2    44   12.1   24.9   8.20 1.1763    115    1    100.0    5 
26/05/15   4:30   10.2   10.3   10.2    82    7.3   2.0    NW   0.17   4.0   NNW   10.2   10.2   10.2  1021.0  0.00   0.0   0.028   0.000   25.2    44   12.1   24.9   8.20 1.1763    116    1    100.0    5 
26/05/15   4:35   10.2   10.2   10.2    82    7.2   2.0   NNW   0.17   4.0    NW   10.2   10.2   10.2  1021.1  0.00   0.0   0.028   0.000   25.2    44   12.0   24.9   8.20 1.1766    115    1    100.0    5 
26/05/15   4:40   10.1   10.2   10.1    82    7.2   2.0   NNW   0.17   4.0   NNW   10.1   10.1   10.1  1021.2  0.00   0.0   0.029   0.000   25.2    44   12.0   24.9   8.20 1.1767    117    1    100.0    5 
26/05/15   4:45   10.1   10.1   10.1    82    7.1   2.0    NW   0.17   4.0   NNW   10.1   10.1   10.1  1021.1  0.00   0.0   0.029   0.000   25.2    44   12.0   24.9   8.20 1.1767    116    1    100.0    5 
26/05/15   4:50   10.0   10.1   10.0    83    7.2   2.0    NW   0.17   4.0    NW   10.0   10.1   10.1  1021.1  0.00   0.0   0.029   0.000   25.1    43   11.6   24.8   8.05 1.1773    116    1    100.0    5 
26/05/15   4:55    9.9   10.0    9.9    83    7.2   1.0    NW   0.08   3.0    NW    9.9   10.0   10.0  1021.2  0.00   0.0   0.029   0.000   25.1    43   11.6   24.8   8.05 1.1773    117    1    100.0    5 
26/05/15   5:00    9.8    9.9    9.8    83    7.1   1.0    NW   0.08   2.0    NW    9.8    9.8    9.8  1021.1  0.00   0.0   0.030   0.000   25.1    43   11.6   24.8   8.05 1.1773    115    1    100.0    5 
26/05/15   5:05    9.8    9.9    9.8    83    7.0   1.0    NW   0.08   2.0    NW    9.8    9.8    9.8  1021.1  0.00   0.0   0.030   0.000   25.1    43   11.6   24.7   8.05 1.1776    116    1    100.0    5 
26/05/15   5:10    9.7    9.8    9.7    84    7.1   1.0    NW   0.08   2.0    NW    9.7    9.8    9.8  1021.1  0.00   0.0   0.030   0.000   25.1    43   11.6   24.7   8.05 1.1775    116    1    100.0    5 
26/05/15   5:15    9.7    9.7    9.7    84    7.1   1.0    NW   0.08   3.0    NW    9.7    9.8    9.8  1021.1  0.00   0.0   0.030   0.000   25.1    43   11.6   24.7   8.05 1.1775    116    1    100.0    5 
26/05/15   5:20    9.7    9.7    9.7    84    7.1   2.0    NW   0.17   3.0    NW    9.7    9.7    9.7  1021.1  0.00   0.0   0.030   0.000   25.0    43   11.5   24.7   8.05 1.1778    117    1    100.0    5 
26/05/15   5:25    9.7    9.7    9.7    85    7.3   3.0    NW   0.25   4.0    NW    9.4    9.7    9.5  1021.1  0.00   0.0   0.030   0.000   25.0    43   11.5   24.7   8.05 1.1778    117    1    100.0    5 
26/05/15   5:30    9.7    9.7    9.7    85    7.3   2.0    NW   0.17   4.0    NW    9.7    9.7    9.7  1021.2  0.00   0.0   0.030   0.000   24.9    43   11.5   24.6   8.05 1.1782    117    1    100.0    5 
26/05/15   5:35    9.7    9.7    9.7    86    7.4   2.0   NNW   0.17   4.0   NNW    9.7    9.7    9.7  1021.2  0.00   0.0   0.030   0.000   24.9    43   11.5   24.6   8.05 1.1782    117    1    100.0    5 
26/05/15   5:40    9.7    9.7    9.7    86    7.4   2.0    NW   0.17   4.0    NW    9.7    9.7    9.7  1021.3  0.00   0.0   0.030   0.000   24.9    43   11.4   24.6   8.05 1.1786    116    1    100.0    5 
26/05/15   5:45    9.7    9.7    9.7    86    7.5   1.0    NW   0.08   3.0    NW    9.7    9.8    9.8  1021.3  0.00   0.0   0.030   0.000   24.9    43   11.4   24.6   8.05 1.1786    116    1    100.0    5 
26/05/15   5:50    9.7    9.7    9.7    86    7.5   2.0    NW   0.17   4.0   WNW    9.7    9.8    9.8  1021.3  0.00   0.0   0.030   0.000   24.9    43   11.4   24.6   8.05 1.1786    117    1    100.0    5 
26/05/15   5:55    9.7    9.8    9.7    86    7.5   3.0    NW   0.25   5.0   WNW    9.5    9.8    9.6  1021.3  0.00   0.0   0.030   0.000   24.8    43   11.4   24.5   8.05 1.1788    117    1    100.0    5 
26/05/15   6:00    9.8    9.8    9.7    86    7.5   3.0    NW   0.25   5.0    NW    9.6    9.8    9.6  1021.5  0.00   0.0   0.030   0.000   24.8    43   11.3   24.4   8.05 1.1793    117    1    100.0    5 
26/05/15   6:05    9.8    9.8    9.8    86    7.6   3.0    NW   0.25   4.0    NW    9.6    9.9    9.7  1021.4  0.00   0.0   0.030   0.000   24.8    43   11.3   24.4   8.05 1.1793    117    1    100.0    5 
26/05/15   6:10    9.9    9.9    9.8    87    7.8   3.0    NW   0.25   4.0    NW    9.7   10.0    9.8  1021.4  0.00   0.0   0.029   0.000   24.8    43   11.3   24.4   8.05 1.1793    117    1    100.0    5 
26/05/15   6:15   10.0   10.0    9.9    87    7.9   3.0    NW   0.25   6.0   WNW    9.8   10.1    9.9  1021.5  0.00   0.0   0.029   0.000   24.8    43   11.3   24.4   8.05 1.1794    115    1    100.0    5 
26/05/15   6:20   10.2   10.2   10.1    87    8.1   3.0   WNW   0.25   6.0   WNW   10.0   10.3   10.1  1021.5  0.00   0.0   0.028   0.000   24.7    44   11.6   24.4   8.22 1.1793    116    1    100.0    5 
26/05/15   6:25   10.3   10.3   10.2    86    8.0   2.0   WNW   0.17   5.0    NW   10.3   10.3   10.3  1021.6  0.00   0.0   0.028   0.000   24.7    44   11.6   24.4   8.22 1.1794    117    1    100.0    5 
26/05/15   6:30   10.4   10.4   10.3    86    8.1   4.0    NW   0.33   7.0   WNW    9.8   10.4    9.9  1021.5  0.00   0.0   0.028   0.000   24.7    44   11.6   24.4   8.22 1.1793    116    1    100.0    5 
26/05/15   6:35   10.5   10.5   10.4    86    8.3   4.0     W   0.33   7.0   WNW    9.9   10.6   10.0  1021.6  0.00   0.0   0.027   0.000   24.7    44   11.6   24.4   8.22 1.1794    115    1    100.0    5 
26/05/15   6:40   10.6   10.6   10.5    85    8.1   4.0   WNW   0.33   7.0     W   10.0   10.6   10.0  1021.6  0.00   0.0   0.027   0.000   24.7    44   11.6   24.4   8.22 1.1797    117    1    100.0    5 
26/05/15   6:45   10.7   10.7   10.6    85    8.2   4.0   WNW   0.33   8.0   WNW   10.1   10.7   10.1  1021.6  0.00   0.0   0.027   0.000   24.7    44   11.6   24.4   8.22 1.1797    113    1     99.1    5 
26/05/15   6:50   10.8   10.8   10.7    85    8.4   4.0   WNW   0.33   6.0   WNW   10.3   10.8   10.3  1021.6  0.00   0.0   0.026   0.000   24.7    44   11.6   24.4   8.22 1.1797    116    1    100.0    5 
26/05/15   6:55   10.9   10.9   10.8    84    8.3   4.0   WNW   0.33   7.0   WNW   10.4   10.9   10.4  1021.6  0.00   0.0   0.026   0.000   24.7    44   11.6   24.4   8.22 1.1797    117    1    100.0    5 
26/05/15   7:00   11.0   11.0   10.9    84    8.4   4.0   WNW   0.33   8.0    NW   10.6   11.0   10.6  1021.6  0.00   0.0   0.025   0.000   24.6    44   11.5   24.3   8.22 1.1799    117    1    100.0    5 
26/05/15   7:05   11.1   11.1   11.0    84    8.5   4.0   WNW   0.33   7.0   WNW   10.7   11.1   10.7  1021.6  0.00   0.0   0.025   0.000   24.6    44   11.5   24.3   8.22 1.1799    113    1     99.1    5 
77458